[000:131] [2025-03-18 14:23:22 +0000.
406725][1117] Log to
file:/storage/emulated/0/voip-data/[Link]/[Link] start time:2025-03-
18 14:23:22 +0000
[000:131] [2025-03-18 14:23:22 +0000.406894][1117] set AppID=50011 old AppID=-1
[000:131] [2025-03-18 14:23:22 +0000.406994][1117] Init the android object with
jvm:0xb400007703221380 env:0x76e53d58c0 context:0x768ef912e8
[000:131] [2025-03-18 14:23:22 +0000.407105][1117] SetAndroidMediaCodecObjects
time:20141143 enter.
[000:131] [2025-03-18 14:23:22 +0000.407193][1117] SetAndroidMediaCodecObjects
leave. expire time = 0 ms
[000:131] [2025-03-18 14:23:22 +0000.407273][1117] SetAndroidMediaCodecObjects
time:20141143 enter.
[000:131] [2025-03-18 14:23:22 +0000.407345][1117] SetAndroidMediaCodecObjects:
SetAndroidMediaCodecObjects:: jvm :0xb400007703221380
[000:132] [2025-03-18 14:23:22 +0000.407479][1117] SetAndroidMediaCodecObjects:
SetAndroidMediaCodecObjects success g_jvm_:0xb400007703221380 address:0x7628554760
[000:132] [2025-03-18 14:23:22 +0000.407557][1117] SetAndroidMediaCodecObjects:
SetAndroidMediaCodecObjects success g_jvm_encoder_:0xb400007703221380
address:0x7628554760
[000:132] [2025-03-18 14:23:22 +0000.407630][1117] SetAndroidMediaCodecObjects
leave. expire time = 1 ms
[000:132] [2025-03-18 14:23:22 +0000.407725][1117] Set the android objects with
jvm:0xb400007703221380 env:0x76e53d58c0 context:0x768ef912e8
[000:135] [2025-03-18 14:23:22 +0000.410603][1117] audio jni debug :manager
SetAndroidAudioDeviceObjects env:0x76e53d58c0
[000:135] [2025-03-18 14:23:22 +0000.410728][1117] SystemUtil Init done
[000:138] [2025-03-18 14:23:22 +0000.414339][1117]
Java_com_xiaomi_recordmediaprocess_MediaEffectCamera_ConstructMediaEffectCameraJni:
[000:141] [2025-03-18 14:23:22 +0000.416521][1117] MediaFilterCamera
[000:141] [2025-03-18 14:23:22 +0000.416670][1117] RecordingSessionInternalSimple:
Create session internal:720 X 1280 fps:30
[000:141] [2025-03-18 14:23:22 +0000.416918][1117] createSessionInternal: create
session with video size:720 X 1280 fps:30 bitrate:14680064
[000:141] [2025-03-18 14:23:22 +0000.417024][1117] Recording session using default
bitrate support by app:14680064
[000:141] [2025-03-18 14:23:22 +0000.416987][1daa] Error([Link]): Set the
pthread name failed with error:34 name:Thread 0x0x76f2814e40
[000:141] [2025-03-18 14:23:22 +0000.417367][1daa] setAudioChannelCount_w:
RecordingSessionInternalSimple:set the audio channel count:2
[000:142] [2025-03-18 14:23:22 +0000.417571][1117] setAudioSampleRate:
RecordingSessionInternalSimple:set the audio bitrate:44100
[000:143] [2025-03-18 14:23:22 +0000.418942][1117] Error([Link]): Open the file
failed. error:2
[000:143] [2025-03-18 14:23:22 +0000.419063][1117]
Error(key_value_pair_store.cc:130): load the data failed from: voip_config.ini
[000:143] [2025-03-18 14:23:22 +0000.419136][1117] The device model: 220333qbi
usingSoftwareAEC value: 0
[000:148] [2025-03-18 14:23:22 +0000.423688][1117] Error([Link]): Open the file
failed. error:2
[000:148] [2025-03-18 14:23:22 +0000.423865][1117]
Error(key_value_pair_store.cc:130): load the data failed from:
/storage/emulated/0/voip-data/[Link]/voip_config.ini
[000:148] [2025-03-18 14:23:22 +0000.423979][1117] The device model: 220333qbi
usingHardwareAEC value: 0
[000:148] [2025-03-18 14:23:22 +0000.424054][1117] The machine device: 220333qbi
usingHardwareAEC value: 0
[000:148] [2025-03-18 14:23:22 +0000.424128][1117] Using Default AEC type: software
AEC
[000:150] [2025-03-18 14:23:22 +0000.426211][1117] The device model: 220333qbi enum
value: 0
[000:151] [2025-03-18 14:23:22 +0000.427289][1117] GetMachineModel is 220333QBI
[000:151] [2025-03-18 14:23:22 +0000.427472][1117] GetMachineInfo: 220333QBI
[000:152] [2025-03-18 14:23:22 +0000.427587][1117] Construct BeautifyReader
begin...
[000:152] [2025-03-18 14:23:22 +0000.427666][1117] dumpStickerRgba:0
dumpStickerYuv:0
[000:152] [2025-03-18 14:23:22 +0000.427736][1117] Construct BeautifyReader done.
[000:156] [2025-03-18 14:23:22 +0000.431562][1117] Error([Link]): Open the file
failed. error:2
[000:156] [2025-03-18 14:23:22 +0000.431694][1117]
Error(key_value_pair_store.cc:130): load the data failed from:
/storage/emulated/0/voip-data/[Link]/support_resolution.txt
[000:156] [2025-03-18 14:23:22 +0000.431908][1117] AppDeviceManagerStartCamera::The
result of start thread is: 1 micOn:0
[000:156] [2025-03-18 14:23:22 +0000.431991][1117] AppDeviceManager telnet server
for statistics started......
[000:156] [2025-03-18 14:23:22 +0000.431974][1dad] Error([Link]): Set the
pthread name failed with error:34 name:Thread 0x0x766b1159a0
[000:157] [2025-03-18 14:23:22 +0000.432692][1117] CpuOverloadDetect time:20141169
enter.
[000:157] [2025-03-18 14:23:22 +0000.432865][1117] CpuOverloadDetect leave. expire
time = 0 ms
[000:157] [2025-03-18 14:23:22 +0000.432914][1dae] Error([Link]): Set the
pthread name failed with error:34 name:Thread 0x0x76f292d680
[000:158] [2025-03-18 14:23:22 +0000.434301][1117] AppDeviceMana
GetOpenslVoiceMode before get setting: 1
[000:158] [2025-03-18 14:23:22 +0000.434391][1117] AppDeviceMana
GetOpenslVoiceMode after get setting: 1
[000:164] [2025-03-18 14:23:22 +0000.439652][1117] AudioManagerAndroid
getProperty:[Link].OUTPUT_SAMPLE_RATE
[000:167] [2025-03-18 14:23:22 +0000.443298][1117] AudioManagerAndroid
getProperty:[Link].OUTPUT_FRAMES_PER_BUFFER
[000:169] [2025-03-18 14:23:22 +0000.444514][1117] CreatePlatformSpecificObjects:
[000:169] [2025-03-18 14:23:22 +0000.444642][1117] audio device use opensle input
and opensl output
[000:169] [2025-03-18 14:23:22 +0000.444755][1117] Create OpenSLES output module
with java VM support.
[000:169] [2025-03-18 14:23:22 +0000.445095][1117] AudioManagerAndroid
getProperty:[Link].OUTPUT_SAMPLE_RATE
[000:170] [2025-03-18 14:23:22 +0000.445436][1117] AudioManagerAndroid
getProperty:[Link].OUTPUT_FRAMES_PER_BUFFER
[000:170] [2025-03-18 14:23:22 +0000.445812][1117] Create OpenSLES output module
with buffer num:1
[000:170] [2025-03-18 14:23:22 +0000.446113][1117] AudioManagerAndroid
getProperty:[Link].OUTPUT_SAMPLE_RATE
[000:170] [2025-03-18 14:23:22 +0000.446377][1117] AudioManagerAndroid
getProperty:[Link].OUTPUT_FRAMES_PER_BUFFER
[000:171] [2025-03-18 14:23:22 +0000.446687][1117] Create OpenSLES input module
with java VM support.
[000:171] [2025-03-18 14:23:22 +0000.446779][1117] Create OpenSLES input module
with buffer num:1
[000:171] [2025-03-18 14:23:22 +0000.446911][1117] Error([Link]): Init the
output and input for audio device template.
[000:171] [2025-03-18 14:23:22 +0000.446989][1117] Init the output device.
[000:171] [2025-03-18 14:23:22 +0000.447059][1117] Init the opensl input.
[000:171] [2025-03-18 14:23:22 +0000.447138][1117] AppDeviceManager get setting
samplerate: 0
[000:172] [2025-03-18 14:23:22 +0000.448073][1117] The device model: 220333qbi enum
value: 0
[000:174] [2025-03-18 14:23:22 +0000.449438][1117] The device model: 220333qbi enum
value: 0
[000:174] [2025-03-18 14:23:22 +0000.449518][1117] Set the sample rate to be:48000
[000:174] [2025-03-18 14:23:22 +0000.449592][1117] Enable the recording stereo:0
[000:174] [2025-03-18 14:23:22 +0000.449665][1117] Set the playout as stereo:1
[000:174] [2025-03-18 14:23:22 +0000.449735][1117] Init the microphone.
[000:175] [2025-03-18 14:23:22 +0000.450517][1117] Update the recording sample rate
to be: 48000
[000:175] [2025-03-18 14:23:22 +0000.450625][1117] Init the speaker.
[000:175] [2025-03-18 14:23:22 +0000.450712][1117] Low latency buffer size:144 low
sample rate:48000
[000:175] [2025-03-18 14:23:22 +0000.451251][1117] Using 1 x 10ms for an audio
frame.
[000:182] [2025-03-18 14:23:22 +0000.457516][1117] Error(splitting_filter.cc:26):
Splitting filter only support two or three bands now.
[000:182] [2025-03-18 14:23:22 +0000.457756][1117] Error(splitting_filter.cc:26):
Splitting filter only support two or three bands now.
[000:182] [2025-03-18 14:23:22 +0000.457884][1117] Error(splitting_filter.cc:26):
Splitting filter only support two or three bands now.
[000:191] [2025-03-18 14:23:22 +0000.466832][1117] The device model:220333qbi
[000:191] [2025-03-18 14:23:22 +0000.467007][1117] speaker output factor:100
defaultFactor: 100
[000:191] [2025-03-18 14:23:22 +0000.467117][1117] headset output factor:100
defaultFactor: 100
[000:192] [2025-03-18 14:23:22 +0000.468095][1117] AppDeviceManagerStart finished.
[000:192] [2025-03-18 14:23:22 +0000.468187][1117] AppDeviceManagerStartMic::mic
status is off
[000:192] [2025-03-18 14:23:22 +0000.468271][1117] AppDeviceManagerStartMic update
aec type: 2
[000:192] [2025-03-18 14:23:22 +0000.468328][1117] AppDeviceManagerStartMic update
voiceChangeMode: 4
[000:192] [2025-03-18 14:23:22 +0000.468387][1117]
AudioDeviceDataHandler::setVoiceChangeMode, mode : 4
[000:193] [2025-03-18 14:23:22 +0000.468441][1117]
AudioDeviceDataHandler::StartMicProcess
[000:193] [2025-03-18 14:23:22 +0000.468689][1117] Try to start webrtc recording
device.
[000:193] [2025-03-18 14:23:22 +0000.468770][1117] StartRecording. threadID:4375
[000:194] [2025-03-18 14:23:22 +0000.469601][1117] The machine model:220333QBI
[000:194] [2025-03-18 14:23:22 +0000.469745][1117] default mode: Set the recording
mode to voice communication to enable HW AEC .
[000:194] [2025-03-18 14:23:22 +0000.469821][1117] Set the recording mode before
getSetting: 4
[000:194] [2025-03-18 14:23:22 +0000.469901][1117] Set the recording mode after
getSetting: 1
[000:194] [2025-03-18 14:23:22 +0000.470094][1daf] Error([Link]): Set the
pthread name failed with error:34 name:AudioDeviceDataHandler gapProcessThread
[000:194] [2025-03-18 14:23:22 +0000.470256][1daf] haveEnoughProcessedData
[Link]: 0
[000:246] [2025-03-18 14:23:22 +0000.521442][1117] StartRecording finished.
[000:246] [2025-03-18 14:23:22 +0000.521635][1117] audio: start the audio mic
checker timer.
[000:248] [2025-03-18 14:23:22 +0000.523595][1117] machine model :redmi
[000:248] [2025-03-18 14:23:22 +0000.523749][1117] Support this machine
model :redmi
[000:256] [2025-03-18 14:23:22 +0000.531838][1117] global inited! current sdk
version: 12-14-d8558ab
[000:312] [2025-03-18 14:23:22 +0000.587932][1db0] webrtc device:Handle the data
from samplesPerSec recording sample rate:48000 nSamples:480 nBytesPerSample:#
nChannels:#
[000:312] [2025-03-18 14:23:22 +0000.588087][1db0] _deviceSampleRate:48000
[000:318] [2025-03-18 14:23:22 +0000.594023][1daf] Run AGC when audioType = 0
[000:318] [2025-03-18 14:23:22 +0000.594406][1daf]
AudioDeviceDataHandler::MixAndSendOutFrame
[000:862] [2025-03-18 14:23:23 +0000.137545][1a54]
Java_com_xiaomi_recordmediaprocess_OpenGlRender_SetCurrentGLContextJni:
[000:862] [2025-03-18 14:23:23 +0000.137919][1dab] MediaFilterCamera, recording
file context:0x76f2852700 input texture:4
[000:862] [2025-03-18 14:23:23 +0000.138038][1dab] GLESContext:
[000:862] [2025-03-18 14:23:23 +0000.138163][1dab] The result of eglGetDisplay is:
0x1
[000:865] [2025-03-18 14:23:23 +0000.140587][1dab] The result of creation:
0x764c9c3080
[000:865] [2025-03-18 14:23:23 +0000.141104][1dab] The result of
eglCreatePbufferSurface is: 0x764c9c3180
[000:866] [2025-03-18 14:23:23 +0000.141506][1a54]
Java_com_xiaomi_recordmediaprocess_OpenGlRender_SetCurrentGLContextJni:
g_eglcontext: 0x76f2852700 input_texture: 4
[001:952] [2025-03-18 14:23:24 +0000.228411][1daf] haveEnoughProcessedData
[Link]: 10
[002:311] [2025-03-18 14:23:24 +0000.587284][1daf] Run AGC when audioType = 0
[003:693] [2025-03-18 14:23:25 +0000.968907][1daf] haveEnoughProcessedData
[Link]: 0
[004:251] [2025-03-18 14:23:26 +0000.526547][1da5]
monitorTime:4005totalDuration:3940
[004:313] [2025-03-18 14:23:26 +0000.589041][1daf] Run AGC when audioType = 0
[004:313] [2025-03-18 14:23:26 +0000.589338][1daf]
AudioDeviceDataHandler::MixAndSendOutFrame
[005:433] [2025-03-18 14:23:27 +0000.708916][1daf] haveEnoughProcessedData
[Link]: 10
[006:314] [2025-03-18 14:23:28 +0000.589463][1daf] Run AGC when audioType = 0
[007:184] [2025-03-18 14:23:29 +0000.460061][1daf] haveEnoughProcessedData
[Link]: 10
[008:199] [2025-03-18 14:23:30 +0000.475291][10ef] SetOrientation:
MediaFilterCamera:: SetOrientation: 90
[008:199] [2025-03-18 14:23:30 +0000.475395][10ef]
Java_com_xiaomi_recordmediaprocess_MediaEffectCamera_SetOrientationJni: media
filter camera orientation: 90
[008:201] [2025-03-18 14:23:30 +0000.476727][10ef]
Java_com_xiaomi_recordmediaprocess_MediaEffectCamera_StartRecordingJni:
[008:201] [2025-03-18 14:23:30 +0000.476973][1dab] operator() time:20149213 enter.
[008:201] [2025-03-18 14:23:30 +0000.477095][1dab] MediaFilterCamera, recording
file context:0x76f2852700 input texture:4
[008:203] [2025-03-18 14:23:30 +0000.478606][1dab] MicSource: Mic source
created:10x76f2899c00
[008:203] [2025-03-18 14:23:30 +0000.479284][1dab] received external audio stream
[008:203] [2025-03-18 14:23:30 +0000.479382][1dab] alloc thread: 0x766b146a00
name:worker0 thread id:507191954560 to Mic_source
[008:204] [2025-03-18 14:23:30 +0000.479533][1dab] audio: start the audio sender
thread.
[008:204] [2025-03-18 14:23:30 +0000.479704][1dab] construct OpenGLRenderProgram
0x76f28a1a98
[008:204] [2025-03-18 14:23:30 +0000.479784][1dab] CropFilter::SetOrientation
orientation: 90
[008:204] [2025-03-18 14:23:30 +0000.479984][1dab] filter: filter pipeline
construtc this: 0x764d0f0ac0
[008:204] [2025-03-18 14:23:30 +0000.480065][1dab] filter: filter pipeline2 update
pattern: 1
[008:204] [2025-03-18 14:23:30 +0000.480225][1dab] CameraSource::source_id_:1
[008:204] [2025-03-18 14:23:30 +0000.480306][1dab] RecordAudioSource::source_id_:2
[008:205] [2025-03-18 14:23:30 +0000.480609][1dab] BindInputFilter 0x764d116140
this 0x76f28a1cc0
[008:205] [2025-03-18 14:23:30 +0000.480712][1dab] BindInputFilter 0x764d1162d8
this 0x764d116450
[008:205] [2025-03-18 14:23:30 +0000.480806][1dab] BindInputFilter 0x76f28a1cc0
this 0x764d0f0b60
[008:205] [2025-03-18 14:23:30 +0000.480914][1dab] setParamentForFilters:
speed:1.000000
[008:205] [2025-03-18 14:23:30 +0000.480927][1daf] On audio frame the broadcast
with timestamp:20149217 samples:480. (1000 frame for one log)
[008:205] [2025-03-18 14:23:30 +0000.481003][1dab] SetParamForFilter:
AF_SpeedFilter params:, speed_ 1
[008:205] [2025-03-18 14:23:30 +0000.481067][1dab] SetParamForFilter time:20149217
enter.
[008:205] [2025-03-18 14:23:30 +0000.481135][1dab] Error(crop_filter.cc:263):
SetParamForFilter: Not found modetype param, using default modetype citytravel!
[008:205] [2025-03-18 14:23:30 +0000.481208][1dab] SetParamForFilter: Params video
index is: 0
[008:205] [2025-03-18 14:23:30 +0000.481275][1dab] Error(crop_filter.cc:283):
SetParamForFilter: PhotoFilter params, donnot find index
[008:205] [2025-03-18 14:23:30 +0000.481343][1dab] Error(crop_filter.cc:291):
SetParamForFilter: PhotoFilter params, donnot find intensity
[008:206] [2025-03-18 14:23:30 +0000.481412][1dab] crop filter mode tpye:
citytravelvideo index:0
[008:211] [2025-03-18 14:23:30 +0000.487207][1dab]
Warning(parse_template_json.cc:45): json parament no found the parament
[008:211] [2025-03-18 14:23:30 +0000.487338][1dab]
Warning(parse_template_json.cc:45): json parament no found the parament
[008:211] [2025-03-18 14:23:30 +0000.487401][1dab]
Warning(parse_template_json.cc:45): json parament no found the parament
[008:212] [2025-03-18 14:23:30 +0000.487505][1dab]
Warning(parse_template_json.cc:45): json parament no found the parament
[008:212] [2025-03-18 14:23:30 +0000.487563][1dab]
Warning(parse_template_json.cc:45): json parament no found the parament
[008:212] [2025-03-18 14:23:30 +0000.487617][1dab]
Warning(parse_template_json.cc:45): json parament no found the parament
[008:212] [2025-03-18 14:23:30 +0000.487671][1dab]
Warning(parse_template_json.cc:45): json parament no found the parament
[008:212] [2025-03-18 14:23:30 +0000.487724][1dab]
Warning(parse_template_json.cc:81): json parament no found the parament
[008:212] [2025-03-18 14:23:30 +0000.487777][1dab]
Warning(parse_template_json.cc:81): json parament no found the parament
[008:212] [2025-03-18 14:23:30 +0000.487831][1dab]
Warning(parse_template_json.cc:67): json parament no found the parament
[008:212] [2025-03-18 14:23:30 +0000.487920][1dab]
Warning(parse_template_json.cc:93): json parament no found the duration
[008:212] [2025-03-18 14:23:30 +0000.487991][1dab] SetParamForFilter leave. expire
time = 7 ms
[008:212] [2025-03-18 14:23:30 +0000.488406][1dab] OnOutputSizeChanged width 1280
height 720
[008:213] [2025-03-18 14:23:30 +0000.488498][1dab] OpenGLFrameBuffer: width:1280
height:720
[008:213] [2025-03-18 14:23:30 +0000.488560][1dab] OpenGLFrameBuffer: width:1280
height:720
[008:213] [2025-03-18 14:23:30 +0000.488613][1dab] OpenGLFrameBuffer: width:1280
height:720
[008:213] [2025-03-18 14:23:30 +0000.488665][1dab] OpenGLFrameBuffer: width:1280
height:720
[008:213] [2025-03-18 14:23:30 +0000.488748][1dab] OpenGLFrameBuffer: width:1280
height:720
[008:213] [2025-03-18 14:23:30 +0000.488818][1dab] OpenGLFrameBuffer: width:1280
height:720
[008:213] [2025-03-18 14:23:30 +0000.488885][1dab] construct TrivalImageDrawer
0x766b135080
[008:213] [2025-03-18 14:23:30 +0000.488981][1dab] GPUImageProcessing construct:
frame resolution is: 1280 X 720 drawer 0x766b135080 context 0x766b127380
[008:213] [2025-03-18 14:23:30 +0000.489038][1dab] setupGLES:
[008:214] [2025-03-18 14:23:30 +0000.489865][1dab] OpenGLRenderProgram::Initialize.
[008:214] [2025-03-18 14:23:30 +0000.489901][1dde] Get data in mic source, which
has byte length:1764micAudioStream->length():10
[008:214] [2025-03-18 14:23:30 +0000.490025][1dab] The version of the OpenGL:
OpenGL ES GLSL ES 3.20
[008:214] [2025-03-18 14:23:30 +0000.490087][1dab] The extension of the OpenGL:
GL_OES_EGL_image GL_OES_EGL_image_external GL_OES_EGL_sync GL_OES_vertex_half_float
GL_OES_framebuffer_object GL_OES_rgb8_rgba8 GL_OES_compressed_ETC1_RGB8_texture
GL_AMD_compressed_ATC_texture GL_KHR_texture_compression_astc_ldr
GL_OES_texture_npot GL_EXT_texture_filter_anisotropic
GL_EXT_texture_format_BGRA8888 GL_EXT_read_format_bgra GL_OES_texture_3D
GL_EXT_color_buffer_float GL_EXT_color_buffer_half_float GL_QCOM_alpha_test
GL_OES_depth24 GL_OES_packed_depth_stencil GL_OES_depth_texture
GL_OES_depth_texture_cube_map GL_EXT_sRGB GL_OES_texture_float
GL_OES_texture_float_linear GL_OES_texture_half_float
GL_OES_texture_half_float_linear GL_EXT_texture_type_2_10_10_10_REV
GL_EXT_texture_sRGB_decode GL_EXT_texture_format_sRGB_override
GL_OES_element_index_uint GL_EXT_copy_image GL_EXT_geometry_shader
GL_EXT_tessellation_shader GL_OES_texture_stencil8 GL_EXT_shader_io_blocks
GL_OES_shader_image_atomic GL_OES_sample_variables GL_EXT_texture_border_clamp
GL_EXT_EGL_image_external_wrap_modes GL_EXT_multisampled_render_to_texture
GL_EXT_multisampled_render_to_texture2 GL_OES_shader_multisample_interpolation
GL_EXT_texture_cube_map_array GL_EXT_draw_buffers_indexed GL_EXT_gpu_shader5
GL_EXT_robustness GL_EXT_texture_buffer GL_EXT_shader_framebuffer_fetch
GL_ARM_shader_framebuffer_fetch_depth_stencil
GL_OES_texture_storage_multisample_2d_array GL_OES_sample_shading
GL_OES_get_program_binary GL_EXT_debug_label GL_KHR_blend_equation_advanced
GL_KHR_blend_equation_advanced_coherent GL_QCOM_tiled_rendering
GL_ANDROID_extension_pack_es31a GL_EXT_primitive_bounding_box
GL_OES_standard_derivatives GL_OES_vertex_array_object GL_EXT_disjoint_timer_query
GL_KHR_debug GL_EXT_YUV_target GL_EXT_sRGB_write_control GL_EXT_texture_norm16
GL_EXT_discard_framebuffer GL_OES_surfaceless_context GL_OVR_multiview
GL_OVR_multiview2 GL_EXT_texture_sRGB_R8 GL_KHR_no_error GL_EXT_debug_marker
GL_OES_EGL_image_external_essl3 GL_OVR_multiview_multisampled_render_to_texture
GL_EXT_buffer_storage GL_EXT_external_buffer GL_EXT_blit_framebuffer_params
GL_EXT_clip_cull_distance GL_EXT_protected_textures
GL_EXT_shader_non_constant_global_initializers GL_QCOM_texture_foveated
GL_QCOM_texture_foveated_subsampled_layout
GL_QCOM_shader_framebuffer_fetch_noncoherent GL_QCOM_shader_framebuffer_fetch_rate
GL_EXT_memory_object GL_EXT_memory_object_fd GL_EXT_EGL_image_array
GL_NV_shader_noperspective_interpolation GL_KHR_robust_buffer_access_behavior
GL_EXT_EGL_image_storage GL_EXT_blend_func_extended GL_EXT_clip_control
GL_OES_texture_view GL_EXT_fragment_invocation_density
GL_QCOM_validate_shader_binary GL_QCOM_YUV_texture_gather
[008:214] [2025-03-18 14:23:30 +0000.490220][1dab] Init open gl render:
0x76f28a1a98
[008:214] [2025-03-18 14:23:30 +0000.490323][1dab] Fragement shader path:
[008:215] [2025-03-18 14:23:30 +0000.490417][1dab] Fragement shader path:
[008:215] [2025-03-18 14:23:30 +0000.490472][1dab] create opengl program object.
[008:215] [2025-03-18 14:23:30 +0000.490525][1dab] create shader: vertex
[008:215] [2025-03-18 14:23:30 +0000.490742][1dde] The output timestamp from audio
mixer change:20149217
[008:215] [2025-03-18 14:23:30 +0000.490825][1dde] Error([Link]): There
is no output connect to mic source, discard the frame.
[008:313] [2025-03-18 14:23:30 +0000.588823][1daf] Run AGC when audioType = 0
[008:313] [2025-03-18 14:23:30 +0000.589010][1daf]
AudioDeviceDataHandler::MixAndSendOutFrame
[008:322] [2025-03-18 14:23:30 +0000.597517][1dab] create shader: fragment
[008:516] [2025-03-18 14:23:30 +0000.791555][1dab] Have not extra filter filename!
[008:516] [2025-03-18 14:23:30 +0000.791755][1dab] Error(crop_filter.cc:368): Init
the extra yuv texture failed.
[008:516] [2025-03-18 14:23:30 +0000.791823][1dab] OpenGLRenderProgram::Initialize
success.
[008:516] [2025-03-18 14:23:30 +0000.791960][1dab] Setup the OpenGL result:1
[008:516] [2025-03-18 14:23:30 +0000.792414][1daa] start recording, file
path:/data/user/0/[Link]/no_backup/milive//record_video_20149528.mp4
[008:517] [2025-03-18 14:23:30 +0000.792691][1daa] MP4 session params: fps:30
width:1280 height:720 file
name:/data/user/0/[Link]/no_backup/milive//record_video_20149528.mp4
fileFd: -1 audio_timescale:44100 video_timescale:90000
[008:517] [2025-03-18 14:23:30 +0000.792795][1de8] Error([Link]): Set the
pthread name failed with error:34 name:Thread 0x0x76e5637498
[008:517] [2025-03-18 14:23:30 +0000.792828][1daa] MP4Recorder AddDisplayRotate:0
c:1 s:0 matrix[0]:256 matrix[1]:0 matrix[2]:0 matrix[3]:0 matrix[4]:256
matrix[8]:64
[008:517] [2025-03-18 14:23:30 +0000.792992][1daa] MP4 recorder params: fps:30
width:1280 height:720 audio time scale:44100 video time scale:90000 file
name:/data/user/0/[Link]/no_backup/milive//record_video_20149528.mp4
fileFD: -1
[008:518] [2025-03-18 14:23:30 +0000.793966][1daa] MP4
file:/data/user/0/[Link]/no_backup/milive//record_video_20149528.mp4 is
opened successfully
[008:518] [2025-03-18 14:23:30 +0000.794053][1daa] setupMediaProcessers:
[008:518] [2025-03-18 14:23:30 +0000.794109][1daa]
RecordingSessionInternalSimple:setup media processers.
[008:518] [2025-03-18 14:23:30 +0000.794171][1daa] construct AAC encoder
[008:519] [2025-03-18 14:23:30 +0000.795334][1daa] H264Encoder creating:
superfast011818
[008:520] [2025-03-18 14:23:30 +0000.795537][1daa] H264Encode::H264Encoder creating
with width:1280 height:720 m_fps:30 m_bitrate:14680064 useHWEncoder:0
[008:522] [2025-03-18 14:23:30 +0000.797467][1daa] H264Encode::GetMachineModel is
220333QBI
[008:522] [2025-03-18 14:23:30 +0000.797588][1daa] H264Encoder machine_mode
is:220333QBI
[008:522] [2025-03-18 14:23:30 +0000.797651][1daa] H264Encode::machine size :9
machine_mode:220333QBI
[008:522] [2025-03-18 14:23:30 +0000.797710][1daa] H264Encode::machine array
size :22 machine_mode:220333QBI
[008:522] [2025-03-18 14:23:30 +0000.797781][1daa] H264Encode::current machine
is :220333QBI auto check hw codec decide to use hw codec
[008:522] [2025-03-18 14:23:30 +0000.797850][1daa] setupCompressionSession:
[008:522] [2025-03-18 14:23:30 +0000.797904][1daa] H264Encode::creating hareware
Encoder
[008:522] [2025-03-18 14:23:30 +0000.797957][1daa] AndroidHwAvcEncoder
time:20149534 enter.
[008:522] [2025-03-18 14:23:30 +0000.798270][1daa] AndroidHwAvcEncoder:
g_jvm_encoder_ :0xb400007703221380 address:0x7628554760
[008:523] [2025-03-18 14:23:30 +0000.798519][1daa] AndroidMediaCodecVideoEncoder
construct jni_init_jfields: 1, 1
[008:523] [2025-03-18 14:23:30 +0000.798617][1daa] The video avc hw codec address
is 0x76584d0860
[008:523] [2025-03-18 14:23:30 +0000.798792][1daa] AndroidHwAvcEncoder leave.
expire time = 1 ms
[008:523] [2025-03-18 14:23:30 +0000.798876][1daa] RegisterEncodeCompleteCallback
time:20149535 enter.
[008:523] [2025-03-18 14:23:30 +0000.799040][1daa] RegisterEncodeCompleteCallback
leave. expire time = 0 ms
[008:523] [2025-03-18 14:23:30 +0000.799130][1daa] InitEncode time:20149535 enter.
[008:523] [2025-03-18 14:23:30 +0000.799260][1daa] InitEncode:
MediaCodecVideoEncoder::Release _inited:1
[008:523] [2025-03-18 14:23:30 +0000.799331][1daa] Create time:20149535 enter.
[008:523] [2025-03-18 14:23:30 +0000.799390][1daa] H264Encoder encoderCreate
width:1280 height:720 fps:30 bitrate:14680064 usingVbrMode:1
[008:524] [2025-03-18 14:23:30 +0000.799499][1daa]
AndroidMediaCodecVideoEncoder::initEncoder, codec: 0, width: 1280, height: 720,
framerate: 30, bitrate: 14680064, usingVbr: 1, VideoEncoder: 0x7664ad7580
[008:562] [2025-03-18 14:23:30 +0000.838231][1daa]
supported_type:image/[Link]
[008:563] [2025-03-18 14:23:30 +0000.838415][1daa] supported_type:video/avc
[008:563] [2025-03-18 14:23:30 +0000.838480][1daa] name:[Link]
mime:video/avc
[008:563] [2025-03-18 14:23:30 +0000.838562][1daa] hwCodecPrefix :[Link].
[008:563] [2025-03-18 14:23:30 +0000.838625][1daa] Found target codecer
[Link]
[008:563] [2025-03-18 14:23:30 +0000.838692][1daa] mediacodec_createCodecByName
time:20149575 enter.
[008:563] [2025-03-18 14:23:30 +0000.838750][1daa] WrapAndroidMediaCodec
time:20149575 enter.
[008:563] [2025-03-18 14:23:30 +0000.839070][1daa] WrapAndroidMediaCodec leave.
expire time = 0 ms
[008:606] [2025-03-18 14:23:30 +0000.882297][1daa] mediacodec_createCodecByName
leave. expire time = 43 ms
[008:607] [2025-03-18 14:23:30 +0000.882634][1daa] WrapAndroidMediaFromat
time:20149619 enter.
[008:607] [2025-03-18 14:23:30 +0000.882813][1daa] WrapAndroidMediaFromat leave.
expire time = 0 ms
[008:669] [2025-03-18 14:23:30 +0000.944508][1daa] Destroy time:20149681 enter.
[008:669] [2025-03-18 14:23:30 +0000.944661][1daa] WrapAndroidMediaFromat::
Destroy
[008:669] [2025-03-18 14:23:30 +0000.944750][1daa] Destroy leave. expire time = 0
ms
[008:669] [2025-03-18 14:23:30 +0000.944827][1daa] ~WrapAndroidMediaFromat
time:20149681 enter.
[008:669] [2025-03-18 14:23:30 +0000.944885][1daa] ~WrapAndroidMediaFromat leave.
expire time = 0 ms
[008:669] [2025-03-18 14:23:30 +0000.944973][1daa] Create leave. expire time = 146
ms
[008:669] [2025-03-18 14:23:30 +0000.945033][1daa] isSemiPlanarSupport
time:20149681 enter.
[008:669] [2025-03-18 14:23:30 +0000.945087][1daa] H264Encoder isSemiPlanarSupport
[008:669] [2025-03-18 14:23:30 +0000.945142][1daa] isSemiPlanarSupport leave.
expire time = 0 ms
[008:669] [2025-03-18 14:23:30 +0000.945197][1daa] creat hw H264Encoder success,
isSemiPlanar:1
[008:669] [2025-03-18 14:23:30 +0000.945377][1daa] InitEncode leave. expire time =
146 ms
[008:670] [2025-03-18 14:23:30 +0000.945439][1daa] H264Encode::created Encoder
[008:670] [2025-03-18 14:23:30 +0000.945491][1daa] H264Encode:: H264 encoder
created.
[008:670] [2025-03-18 14:23:30 +0000.945541][1daa] H264 encoder created.
[008:670] [2025-03-18 14:23:30 +0000.945593][1daa]
RecordingSessionInternalSimple:created avc encoder avc: 0x76586ba480
[008:670] [2025-03-18 14:23:30 +0000.945648][1daa] setOutput:
[008:670] [2025-03-18 14:23:30 +0000.945698][1daa]
RecordingSessionInternalSimple:encoder set output to muxer!
[008:670] [2025-03-18 14:23:30 +0000.945748][1daa] request a key frame
[008:670] [2025-03-18 14:23:30 +0000.945796][1daa] H264Encode:: request a key frame
[008:670] [2025-03-18 14:23:30 +0000.945967][1daa] setDisplayRotate :90
[008:670] [2025-03-18 14:23:30 +0000.946028][1daa] MP4Recorder AddDisplayRotate:90
c:6.12323e-17 s:-1 matrix[0]:0 matrix[1]:256 matrix[2]:0 matrix[3]:65535
matrix[4]:0 matrix[8]:64
[008:670] [2025-03-18 14:23:30 +0000.946147][1dab] StartRecording:
[008:670] [2025-03-18 14:23:30 +0000.946274][1dde] operator(): Set the recording
session in mic source. recording session: 0x764d116180
[008:671] [2025-03-18 14:23:30 +0000.946681][1dab] operator() leave. expire time =
470 ms
[008:671] [2025-03-18 14:23:30 +0000.946679][1ddd] AF_SpeedFilter audio
0x764d116300 PullFrame
[008:671] [2025-03-18 14:23:30 +0000.946810][1ddd]
RecordAudioSource::PullAudioFrame
[008:671] [2025-03-18 14:23:30 +0000.946864][1ddd] AF_SpeedFilter::PullFrame eof4
[008:673] [2025-03-18 14:23:30 +0000.949006][1ddd]
Warning(media_filter_camera.cc:548): media pull audio frame failed:4
[008:679] [2025-03-18 14:23:30 +0000.955368][1ddd] AF_SpeedFilter audio time,
0x764d116300 rcv time: 20149686
[008:680] [2025-03-18 14:23:30 +0000.955521][1ddd] AF_SpeedFilter audio time,
0x764d116300 rcv time: 20149686in_nSamples:441
[008:680] [2025-03-18 14:23:30 +0000.955725][1ddd] resampled_data_size:0
[008:719] [2025-03-18 14:23:30 +0000.994961][1dab]
MediaFilterCamera::NeedProcessTexture
[008:719] [2025-03-18 14:23:30 +0000.995086][1dab] begine recode to first frame
spend time:518
[008:719] [2025-03-18 14:23:30 +0000.995215][1dab] CameraSource::PushExtraFrame
pkt_dts: 0, width: 1280, height: 720, stride(kYPlane): 0, stride(kUPlane): 0,
stride(KVPlane): 0, this:0x764d116000
[008:719] [2025-03-18 14:23:30 +0000.995317][1dab] blur_distance_:0
[008:720] [2025-03-18 14:23:30 +0000.995512][1dab] blur_direction_angle_:-90
[008:720] [2025-03-18 14:23:30 +0000.995593][1dab]
GPUImageProcessing::SetOrientation orientation: 90
[008:720] [2025-03-18 14:23:30 +0000.995658][1dab] webrtc common_video
I420VideoFrame::CopyFrame (1/1000)
[008:720] [2025-03-18 14:23:30 +0000.995816][1dab] GPUImageProcessing: process
video frame with resolution 1280 X 720
[008:720] [2025-03-18 14:23:30 +0000.995890][1dab] GPUImageProcessing: input frame
width1280 X 720
[008:724] [2025-03-18 14:23:30 +0000.999731][1dab] drawYUV420 render
OpenGLRenderProgram:0x76f28a1a98
[008:726] [2025-03-18 14:23:31 +0000.1844][1dab] The next ready buffer:-1
m_nextAvaiablePixelBuffer:0
[008:726] [2025-03-18 14:23:31 +0000.2063][1dab] CropFilter::OnVideoFrame
outputtexture :6
[008:726] [2025-03-18 14:23:31 +0000.2132][1dab] The next ready buffer:-1
m_nextAvaiablePixelBuffer:0
[008:736] [2025-03-18 14:23:31 +0000.11529][1dab] The read pixel from buffer take:
10 width:1280 height:720 frameType:0
[008:762] [2025-03-18 14:23:31 +0000.37726][1dab] drawYUV420 render
OpenGLRenderProgram:0x76f28a1a98
[008:775] [2025-03-18 14:23:31 +0000.51151][1dab] The convert RGB to YUV take 5
[008:776] [2025-03-18 14:23:31 +0000.51565][1dab] FilterPipeline2::OnVideoFrame pts
39 last_video_timestamp_ 39
[008:776] [2025-03-18 14:23:31 +0000.51687][1dab]
MediaFilterCamera::OnReceiveVideoFrame output_video_timestamp_:0
[008:777] [2025-03-18 14:23:31 +0000.52535][1de7]
MediaFilterCamera::WriteVideoFrametoMP4_w -> pushExtraYUVFrametimestamp:0
[008:777] [2025-03-18 14:23:31 +0000.52658][1de7] RecordingSessionInternalSimple:
pushExtraYUVFrame. width:1280 height:720input pixel type:0 dataType:0 stride:1280
streamId:1 timestamp:0
[008:777] [2025-03-18 14:23:31 +0000.52732][1de7] push video frame to H264 encoder.
(100 frame for one log)
[008:777] [2025-03-18 14:23:31 +0000.52800][1de7] push video frame to H264 encoder.
(100 frame for one log) used width:1280 height:720
[008:777] [2025-03-18 14:23:31 +0000.52864][1de7] H264Encode::push video frame to
H264 encoder, using hw H264:1 width:1280 height:720 pts:0(100 frame for one log)
[008:777] [2025-03-18 14:23:31 +0000.52926][1de7] Push an pts:0 to dts queue.
[008:777] [2025-03-18 14:23:31 +0000.53092][1de7] DTS queue for
Generator:0x76e5637ab8 0
[008:777] [2025-03-18 14:23:31 +0000.53152][1de7] The input pts:0 fps:30
[008:779] [2025-03-18 14:23:31 +0000.55362][1de7]
AndroidMediaCodecVideoEncoder::encodeFrameInput force a key frame
[008:792] [2025-03-18 14:23:31 +0000.67457][1dab] drawYUV420 render
OpenGLRenderProgram:0x76f28a1a98
[008:797] [2025-03-18 14:23:31 +0000.73209][1ddd] AF_SpeedFilter audio time 222,
0x764d116300 out time: 20149686 org time: 20149686
[008:798] [2025-03-18 14:23:31 +0000.73550][1ddd] FilterPipeline2::OnAudioFrame pts
10 last_audio_timestamp_ 10
[008:798] [2025-03-18 14:23:31 +0000.73656][1ddd]
MediaFilterCamera::OnReceiveAudioFrame timestamp: 20149686
[008:798] [2025-03-18 14:23:31 +0000.73731][1ddd]
MediaFilterCamera::OnReceiveAudioFrame timestamp: sample_rate_hz_:44100
num_channels_:2 samples_per_channel_:441
[008:798] [2025-03-18 14:23:31 +0000.73828][1ddd] AF_SpeedFilter audio time
[008:798] [2025-03-18 14:23:31 +0000.73977][1ddd] AF_SpeedFilter audio time 111,
0x764d116300 out time: 20149696 org time: 20149696
[008:799] [2025-03-18 14:23:31 +0000.75218][1de6]
MediaFilterCamera::WriteAudioFrametoMP4_w timestamp: 0queue_audio_frame_:2
[008:801] [2025-03-18 14:23:31 +0000.76592][1de8] add aac audio track with id:1
[008:864] [2025-03-18 14:23:31 +0000.139888][1de7] h264 add frame header cdr flag
[008:865] [2025-03-18 14:23:31 +0000.140835][1de7] h264 add frame header cdr flag
[008:866] [2025-03-18 14:23:31 +0000.141444][1de7] SendFrame
encodedImage._timeStamp:0encodedImage->_length:102847
[008:866] [2025-03-18 14:23:31 +0000.141569][1de7] Received key frame:0
[008:866] [2025-03-18 14:23:31 +0000.141645][1de7] last dts:0 currentPts:0
ppsOrSPS:0 queue length:4
[008:866] [2025-03-18 14:23:31 +0000.141718][1de7] H264Encode::H264SWEncoder get
callback, length:102847 type:0 nalType:7length:18
[008:866] [2025-03-18 14:23:31 +0000.141805][1de7] H264Encode:: get a sps pps
header!headerSize:31
[008:866] [2025-03-18 14:23:31 +0000.141865][1de7] H264Encode::H264 encoder push
frame to next component(100 times for one log) with dts:0 pts:0
[008:866] [2025-03-18 14:23:31 +0000.142057][1de8] get the H.264 SPS parameter
[008:867] [2025-03-18 14:23:31 +0000.142608][1de8] add video track with id:2
[008:868] [2025-03-18 14:23:31 +0000.143829][1de8] get the H.264 PPS parameter
[008:869] [2025-03-18 14:23:31 +0000.144470][1de8] get the H.264 IDR frame
[008:869] [2025-03-18 14:23:31 +0000.144553][1de8] resss:true
[008:869] [2025-03-18 14:23:31 +0000.144663][1de8] video start ts:0
[008:869] [2025-03-18 14:23:31 +0000.144774][1de8] the video frame has been written
into MP4 file
[008:895] [2025-03-18 14:23:31 +0000.170453][1de8] audio start ts:0
[008:895] [2025-03-18 14:23:31 +0000.170672][1de8] the audio frame has been written
into MP4 file
[008:910] [2025-03-18 14:23:31 +0000.186358][1daf] haveEnoughProcessedData
[Link]: 10
[009:212] [2025-03-18 14:23:31 +0000.488143][1dde] Error([Link]): There
is no output connect to mic source, discard the frame.
[009:226] [2025-03-18 14:23:31 +0000.502228][1dab] The read pixel from buffer take:
0 width:1280 height:720 frameType:0
[009:260] [2025-03-18 14:23:31 +0000.535515][1dab] The convert RGB to YUV take 5
[009:516] [2025-03-18 14:23:31 +0000.791863][10ef]
Java_com_xiaomi_recordmediaprocess_MediaEffectCamera_StopRecordingJni:
[009:516] [2025-03-18 14:23:31 +0000.792299][1dab] operator(): Stop
[009:516] [2025-03-18 14:23:31 +0000.792387][1dab] StopPullFrameAndWriteMp4
time:20150528 enter.
[009:517] [2025-03-18 14:23:31 +0000.792459][1dab] StopRecording:
[009:523] [2025-03-18 14:23:31 +0000.798836][1ddd] resampled_data_size:512
[009:523] [2025-03-18 14:23:31 +0000.799024][1ddd] AF_SpeedFilter audio time 222,
0x764d116300 out time: 20150436 org time: 20150436
[009:523] [2025-03-18 14:23:31 +0000.799202][1ddd] PullAudioFrame: PullFrame audio
finished.
[009:523] [2025-03-18 14:23:31 +0000.799260][1ddd]
Warning(media_filter_camera.cc:543): media pull audio frame EOF, so need stop
Timer!
[009:527] [2025-03-18 14:23:31 +0000.802701][1de7]
MediaFilterCamera::WriteVideoFrametoMP4_wwrite mp4 video sum frames:23
[009:531] [2025-03-18 14:23:31 +0000.806793][1daa] stop recording
[009:531] [2025-03-18 14:23:31 +0000.807061][1daa]
RecordingSessionInternalSimple:destroy media processers
[009:531] [2025-03-18 14:23:31 +0000.807124][1daa] H264Encode::H264Encoder flush
frames, m_useHWEncoder:1
[009:531] [2025-03-18 14:23:31 +0000.807180][1daa] H264Encode::flushing hareware
Encoder
[009:532] [2025-03-18 14:23:31 +0000.807592][1daa] Flush time:20150544 enter.
[009:532] [2025-03-18 14:23:31 +0000.807782][1daa] H264Encoder encoder flush
[009:532] [2025-03-18 14:23:31 +0000.807888][1daa] flush output queue
[009:848] [2025-03-18 14:23:32 +0000.123590][1daa] Flush leave. expire time = 316
ms
[009:848] [2025-03-18 14:23:32 +0000.123981][1daa] ~H264EncodeWrap:
[009:848] [2025-03-18 14:23:32 +0000.124094][1daa] ~H264Encode:
[009:848] [2025-03-18 14:23:32 +0000.124174][1daa] teardownCompressionSession:
H264Encode::destroying Encoder
[009:848] [2025-03-18 14:23:32 +0000.124257][1daa] Release time:20150860 enter.
[009:849] [2025-03-18 14:23:32 +0000.124625][1daa] Release:
MediaCodecVideoEncoder::Release _inited:1
[009:849] [2025-03-18 14:23:32 +0000.124797][1daa] Destroy time:20150861 enter.
[009:849] [2025-03-18 14:23:32 +0000.124923][1daa] H264Encoder encoderDestroy
[009:849] [2025-03-18 14:23:32 +0000.125013][1daa]
AndroidMediaCodecVideoEncoder::release env: 0x76587af080
[009:849] [2025-03-18 14:23:32 +0000.125100][1daa]
AndroidMediaCodecVideoEncoder::Destroy
[009:890] [2025-03-18 14:23:32 +0000.165478][1daa] Destroy leave. expire time = 41
ms
[009:890] [2025-03-18 14:23:32 +0000.165746][1daa] Release leave. expire time = 42
ms
[009:890] [2025-03-18 14:23:32 +0000.165814][1daa] ~AndroidHwAvcEncoder
time:20150902 enter.
[009:890] [2025-03-18 14:23:32 +0000.166050][1daa] Release time:20150902 enter.
[009:890] [2025-03-18 14:23:32 +0000.166124][1daa] Release:
MediaCodecVideoEncoder:: has been released before, just return
[009:890] [2025-03-18 14:23:32 +0000.166190][1daa] Release leave. expire time = 0
ms
[009:890] [2025-03-18 14:23:32 +0000.166244][1daa] ~AndroidMediaCodecVideoEncoder
[009:890] [2025-03-18 14:23:32 +0000.166296][1daa] ~WrapAndroidMediaCodec
time:20150902 enter.
[009:890] [2025-03-18 14:23:32 +0000.166351][1daa] ~WrapAndroidMediaCodec leave.
expire time = 0 ms
[009:891] [2025-03-18 14:23:32 +0000.166411][1daa] video hevc hw codec
destructor:0x76584d0860
[009:891] [2025-03-18 14:23:32 +0000.166581][1daa] ~AndroidHwAvcEncoder leave.
expire time = 1 ms
[009:891] [2025-03-18 14:23:32 +0000.166667][1daa] teardownCompressionSession:
H264Encode::destroyed Encoder
[009:891] [2025-03-18 14:23:32 +0000.166737][1daa]
RecordingSessionInternalSimple:destroy aac encoder output!
[009:891] [2025-03-18 14:23:32 +0000.166797][1daa] AACSWEncode destructor
[009:897] [2025-03-18 14:23:32 +0000.172735][1de8] MP4 close file successfully
[009:897] [2025-03-18 14:23:32 +0000.172898][1de8] Recording session Internal:
notify recording ok
[009:897] [2025-03-18 14:23:32 +0000.172958][1de8] onRecordingOk: Recording Ok
averagefps 0,
/data/user/0/[Link]/no_backup/milive//record_video_20149528.mp4,
output_video_timestamp_:741 last_video_pts_:741
[009:897] [2025-03-18 14:23:32 +0000.173035][1de8] OnRecordFinish:
[009:900] [2025-03-18 14:23:32 +0000.175977][1de8] onRecordingOk: net seek
pos:0record video duration:774record audio duration:743
[009:902] [2025-03-18 14:23:32 +0000.177566][1dde] destructMicSource_w:
[009:902] [2025-03-18 14:23:32 +0000.177720][1dde] setOutput_w:
MicSource::setOutput() 0x0
[009:902] [2025-03-18 14:23:32 +0000.177800][1dde] close external audio stream
[009:902] [2025-03-18 14:23:32 +0000.178077][1dab] releaseThread 0x766b146a00
[009:902] [2025-03-18 14:23:32 +0000.178171][1dab] ~MicSource: Mic source
destroyed:0x76f2899c00
[009:903] [2025-03-18 14:23:32 +0000.179288][1dab] StopPullFrameAndWriteMp4 leave.
expire time = 387 ms
[009:904] [2025-03-18 14:23:32 +0000.179471][1dab] DestroyPipelineAndFilters
time:20150916 enter.
[009:904] [2025-03-18 14:23:32 +0000.179573][1dab] UnbindInputFilter 0x764d116140
this 0x76f28a1cc0
[009:904] [2025-03-18 14:23:32 +0000.179671][1dab] UnbindInputFilter 0x764d1162d8
this 0x764d116450
[009:904] [2025-03-18 14:23:32 +0000.179834][1dab] UnbindInputFilter 0x76f28a1cc0
this 0x764d0f0b60
[009:904] [2025-03-18 14:23:32 +0000.179898][1dab] filter: filter pipeline destroy
this: 0x764d0f0ac0
[009:905] [2025-03-18 14:23:32 +0000.180456][1dab] ClearVideoOfSources: recodring
total frames:0
[009:905] [2025-03-18 14:23:32 +0000.180583][1dab] ClearVideoOfSources:
[009:905] [2025-03-18 14:23:32 +0000.180640][1dab] GPUImageProcessing destruct.
[009:905] [2025-03-18 14:23:32 +0000.180718][1dab] destroy TrivalImageDrawer
0x766b135080
[009:905] [2025-03-18 14:23:32 +0000.180776][1dab] The shader has been initialize,
clean up them.
[009:905] [2025-03-18 14:23:32 +0000.180874][1dab] ~OpenGLFrameBuffer:
[009:905] [2025-03-18 14:23:32 +0000.181233][1dab] ~OpenGLFrameBuffer:
[009:905] [2025-03-18 14:23:32 +0000.181407][1dab] ~OpenGLFrameBuffer:
[009:906] [2025-03-18 14:23:32 +0000.181555][1dab] ~OpenGLFrameBuffer:
[009:906] [2025-03-18 14:23:32 +0000.181734][1dab] ~OpenGLFrameBuffer:
[009:906] [2025-03-18 14:23:32 +0000.181894][1dab] ~OpenGLFrameBuffer:
[009:906] [2025-03-18 14:23:32 +0000.182235][1dab] GPUImageProcessing destruct
finish.
[009:906] [2025-03-18 14:23:32 +0000.182340][1dab] GPURGBAFrame destruct.
[009:908] [2025-03-18 14:23:32 +0000.183629][1dab] destroy OpenGLRenderProgram
0x76f28a1a98
[009:908] [2025-03-18 14:23:32 +0000.183765][1dab] ~CameraSource time:20150920
enter.
[009:908] [2025-03-18 14:23:32 +0000.183823][1dab] ~CameraSource leave. expire
time = 0 ms
[009:908] [2025-03-18 14:23:32 +0000.183894][1dab] ~RecordAudioSource time:20150920
enter.
[009:908] [2025-03-18 14:23:32 +0000.183952][1dab] ~RecordAudioSource leave.
expire time = 0 ms
[009:908] [2025-03-18 14:23:32 +0000.184015][1dab] DestroyPipelineAndFilters
leave. expire time = 4 ms
[009:937] [2025-03-18 14:23:32 +0000.212550][10ef]
Java_com_xiaomi_recordmediaprocess_MediaEffectGraph_ConstructMediaEffectGraphJni:
[009:938] [2025-03-18 14:23:32 +0000.213956][10ef] machine model :redmi
[009:938] [2025-03-18 14:23:32 +0000.214201][10ef] Support this machine
model :redmi
[009:938] [2025-03-18 14:23:32 +0000.214293][10ef] global inited! current sdk
version: 12-14-d8558ab
[009:939] [2025-03-18 14:23:32 +0000.214818][10ef] filter: filter pipeline
construtc this: 0x76491d4900
[009:939] [2025-03-18 14:23:32 +0000.214922][10ef] MediaFilterGraph:
MediaFilterGraph construct
[009:939] [2025-03-18 14:23:32 +0000.214980][10ef] GLESContext:
[009:939] [2025-03-18 14:23:32 +0000.215114][10ef] The result of eglGetDisplay is:
0x1
[009:942] [2025-03-18 14:23:32 +0000.218018][10ef] The result of creation:
0x7658859200
[009:942] [2025-03-18 14:23:32 +0000.218323][10ef] The result of
eglCreatePbufferSurface is: 0x7658859800
[009:944] [2025-03-18 14:23:32 +0000.219986][10ef] The source 0
path:/data/user/0/[Link]/no_backup/milive//record_video_20149528.mp4
[009:944] [2025-03-18 14:23:32 +0000.220165][10ef] The source 0 speed:1
[009:944] [2025-03-18 14:23:32 +0000.220314][10ef] AddVideoSource: add video
source:
/data/user/0/[Link]/no_backup/milive//record_video_20149528.mp4, delay:
0
[009:944] [2025-03-18 14:23:32 +0000.220399][10ef] CreateDecoderByVideoSource
time:20150956 enter.
[009:945] [2025-03-18 14:23:32 +0000.221366][10ef] running_decoder_count:0max
count:2
[009:946] [2025-03-18 14:23:32 +0000.221565][10ef] Start decoding file
/data/user/0/[Link]/no_backup/milive//record_video_20149528.mp4,
sync_mode: 1, seek_pos: 0, delay: 0, this:0x765842a400
[009:965] [2025-03-18 14:23:32 +0000.240888][1df5] FFMpeg=>
[mov,mp4,m4a,3gp,3g2,mj2 @ 0x766495e400] Current FFmpeg version git-2021-06-16-
97cea6f
[010:199] [2025-03-18 14:23:32 +0000.474759][1df5] OnStreamInfoFound: video
duration_: 774
[010:202] [2025-03-18 14:23:32 +0000.478241][10ef] start decoder
[010:202] [2025-03-18 14:23:32 +0000.478381][10ef] CreateDecoderByVideoSource
leave. expire time = 258 ms
[010:203] [2025-03-18 14:23:32 +0000.478487][10ef] BindInputFilter 0x76647266a0
this 0x765879ea58
[010:203] [2025-03-18 14:23:32 +0000.478569][10ef] BindInputFilter 0x765879ea58
this 0x765879eb18
[010:203] [2025-03-18 14:23:32 +0000.478653][10ef] BindInputFilter 0x76647266a0
this 0x765879ebd8
[010:203] [2025-03-18 14:23:32 +0000.478739][10ef] BindInputFilter 0x765879ebd8
this 0x765879ec98
[010:203] [2025-03-18 14:23:32 +0000.478791][10ef] AddVideoSource: source filter
list is empty, add first:
/data/user/0/[Link]/no_backup/milive//record_video_20149528.mp4
[010:203] [2025-03-18 14:23:32 +0000.478910][10ef] BindInputFilter 0x765879eb18
this 0x765879ed58
[010:203] [2025-03-18 14:23:32 +0000.478989][10ef] BindInputFilter 0x765879ed58
this 0x76491d49a0
[010:203] [2025-03-18 14:23:32 +0000.479066][10ef] BindInputFilter 0x765879ec98
this 0x765879ee18
[010:203] [2025-03-18 14:23:32 +0000.479143][10ef] AddVideoSource: END add video
source: /data/user/0/[Link]/no_backup/milive//record_video_20149528.mp4
[010:205] [2025-03-18 14:23:32 +0000.480576][10ef]
Java_com_xiaomi_recordmediaprocess_EffectMediaPlayer_ConstructMediaPlayerJni:
[010:206] [2025-03-18 14:23:32 +0000.481417][1df6] NO get frame from decoder
[010:206] [2025-03-18 14:23:32 +0000.481492][10ef] machine model :redmi
[010:206] [2025-03-18 14:23:32 +0000.481551][10ef] Support this machine
model :redmi
[010:206] [2025-03-18 14:23:32 +0000.481621][10ef] global inited! current sdk
version: 12-14-d8558ab
[010:206] [2025-03-18 14:23:32 +0000.481772][10ef] GetPipeline:
-----------------------------------------
[010:206] [2025-03-18 14:23:32 +0000.481830][10ef] GetPipeline: source:
0x7664726480
[010:206] [2025-03-18 14:23:32 +0000.481883][10ef] GetPipeline: filter: NULLFilter
[010:206] [2025-03-18 14:23:32 +0000.481935][10ef] GetPipeline: filter: NULLFilter
[010:206] [2025-03-18 14:23:32 +0000.482000][10ef] GetPipeline: filter: NULLFilter
[010:206] [2025-03-18 14:23:32 +0000.482069][10ef] GetPipeline: audio filter:
AuidoNULLFilter
[010:206] [2025-03-18 14:23:32 +0000.482134][10ef] GetPipeline: audio filter:
AuidoNULLFilter
[010:206] [2025-03-18 14:23:32 +0000.482198][10ef] GetPipeline: audio filter:
AudioNUllFilter
[010:206] [2025-03-18 14:23:32 +0000.482262][10ef] GetPipeline:
------------------------------------------
[010:206] [2025-03-18 14:23:32 +0000.482331][10ef] filter: filter pipeline2 update
pattern: 0
[010:207] [2025-03-18 14:23:32 +0000.482883][10ef] Reset: volume estimator reset
frequency : 44100 history size(ms): -1
[010:207] [2025-03-18 14:23:32 +0000.483192][10ef] Reset: volume estimator reset
frequency : 44100 history size(ms): -1
[010:207] [2025-03-18 14:23:32 +0000.483339][10ef] Reset: volume estimator reset
frequency : 44100 history size(ms): -1
[010:208] [2025-03-18 14:23:32 +0000.483689][1df6] NO get frame from decoder
[010:208] [2025-03-18 14:23:32 +0000.483733][10ef] DeviceInit:
[010:208] [2025-03-18 14:23:32 +0000.484330][10ef] AudioManagerAndroid
getProperty:[Link].OUTPUT_SAMPLE_RATE
[010:209] [2025-03-18 14:23:32 +0000.484793][10ef] AudioManagerAndroid
getProperty:[Link].OUTPUT_FRAMES_PER_BUFFER
[010:210] [2025-03-18 14:23:32 +0000.485581][10ef] CreatePlatformSpecificObjects:
[010:210] [2025-03-18 14:23:32 +0000.485666][10ef] audio device use null audio
input and opensl output
[010:210] [2025-03-18 14:23:32 +0000.485732][10ef] Create OpenSLES output module
with java VM support.
[010:210] [2025-03-18 14:23:32 +0000.485786][1df6] NO get frame from decoder
[010:210] [2025-03-18 14:23:32 +0000.486174][10ef] AudioManagerAndroid
getProperty:[Link].OUTPUT_SAMPLE_RATE
[010:211] [2025-03-18 14:23:32 +0000.486527][10ef] AudioManagerAndroid
getProperty:[Link].OUTPUT_FRAMES_PER_BUFFER
[010:211] [2025-03-18 14:23:32 +0000.487051][10ef] Create OpenSLES output module
with buffer num:2
[010:211] [2025-03-18 14:23:32 +0000.487296][10ef] Error([Link]): Init the
output and input for audio device template.
[010:211] [2025-03-18 14:23:32 +0000.487381][10ef] Init the output device.
[010:212] [2025-03-18 14:23:32 +0000.487503][10ef] Set the playout as stereo:1
[010:212] [2025-03-18 14:23:32 +0000.487562][10ef] Set the sample rate to be:44100
[010:212] [2025-03-18 14:23:32 +0000.487643][10ef] Low latency buffer size:144 low
sample rate:48000
[010:212] [2025-03-18 14:23:32 +0000.487713][10ef] DeviceInit: Done
[010:212] [2025-03-18 14:23:32 +0000.487987][10ef] UpdateRate: lipsync_debug:
Update framerate from 0 to 15
[010:212] [2025-03-18 14:23:32 +0000.488077][1df6] NO get frame from decoder
[010:212] [2025-03-18 14:23:32 +0000.488061][1e04] Error([Link]): Set the
pthread name failed with error:34 name:Thread 0x0x7648de2c18
[010:214] [2025-03-18 14:23:32 +0000.489808][10ef]
Java_com_xiaomi_recordmediaprocess_EffectMediaPlayer_SetPlayerNotifyJni:
[010:214] [2025-03-18 14:23:32 +0000.489968][10ef]
MediaFilterPlayer::SetPlayerNotify 0x766498cb80
[010:215] [2025-03-18 14:23:32 +0000.490452][1df6] NO get frame from decoder
[010:215] [2025-03-18 14:23:32 +0000.491115][10ef]
Error(media_filter_player.cc:392): SetPlayLoop: SetPlayLoop error for
media_filter_graph_ GetCurrentSource null
[010:215] [2025-03-18 14:23:32 +0000.491220][10ef]
Java_com_xiaomi_recordmediaprocess_EffectMediaPlayer_SetPlayLoopJni:
EffectMediaPlayer SetPlayLoop #
[010:217] [2025-03-18 14:23:32 +0000.492875][10ef]
Java_com_xiaomi_recordmediaprocess_EffectMediaPlayer_SetGravityJni: gravity: 1
width: 720, height: 1280
[010:218] [2025-03-18 14:23:32 +0000.494214][10ef] SetGraphLoop: SetGraphLoop 1
[010:218] [2025-03-18 14:23:32 +0000.494350][10ef]
Java_com_xiaomi_recordmediaprocess_EffectMediaPlayer_SetGraphLoopJni:
EffectMediaPlayer SetGraphLoop 1
[010:219] [2025-03-18 14:23:32 +0000.495275][1df6] NO get frame from decoder
[010:220] [2025-03-18 14:23:32 +0000.495525][10ef]
Java_com_xiaomi_recordmediaprocess_EffectMediaPlayer_EnableUserAdjustRotatePlayJni:
[010:220] [2025-03-18 14:23:32 +0000.495956][1df6] NO get frame from decoder
[010:222] [2025-03-18 14:23:32 +0000.497782][10ef]
Java_com_xiaomi_recordmediaprocess_EffectMediaPlayer_SetViewSurfaceJni:
[010:224] [2025-03-18 14:23:32 +0000.499471][10ef]
Java_com_xiaomi_recordmediaprocess_EffectMediaPlayer_StartPreViewJni:
[010:224] [2025-03-18 14:23:32 +0000.499758][1e07] Start:
[010:224] [2025-03-18 14:23:32 +0000.499942][1e05] operator(): video render
started.
[010:224] [2025-03-18 14:23:32 +0000.500040][1e05] DriveRender working... (1/200)
[010:224] [2025-03-18 14:23:32 +0000.500064][1e07] Start:
[010:224] [2025-03-18 14:23:32 +0000.500096][1e05] Warning(video_render.cc:390): No
picture to display (1/50)
[010:224] [2025-03-18 14:23:32 +0000.500280][1e07] Reset: volume estimator reset
frequency : 44100 history size(ms): 5000
[010:224] [2025-03-18 14:23:32 +0000.500365][1e07] Reset: history total size: 98
[010:225] [2025-03-18 14:23:32 +0000.500428][1e07] DeviceStart:
audioDevice_:0x7648cc1000
[010:225] [2025-03-18 14:23:32 +0000.500492][1e07] DeviceStart: time profile
playout init before
[010:225] [2025-03-18 14:23:32 +0000.500564][1e07] DeviceStart: time profile
playout init end
[010:225] [2025-03-18 14:23:32 +0000.500614][1e07] OpenSlesOutput:Start playout
[010:226] [2025-03-18 14:23:32 +0000.501564][1df6] NO get frame from decoder
[010:229] [2025-03-18 14:23:32 +0000.504961][1e07] Create the opensl output player.
streamtype before:0
[010:229] [2025-03-18 14:23:32 +0000.505366][1e07] Create the opensl output player.
streamtype after:3
[010:311] [2025-03-18 14:23:32 +0000.587069][1db0] webrtc device:Handle the data
from samplesPerSec recording sample rate:48000 nSamples:480 nBytesPerSample:#
nChannels:#
[010:311] [2025-03-18 14:23:32 +0000.587266][1db0] _deviceSampleRate:48000
[010:316] [2025-03-18 14:23:32 +0000.591687][1daf] Run AGC when audioType = 0
[010:324] [2025-03-18 14:23:32 +0000.600168][1e07] Enqueue opensl buffer size:1764
[010:422] [2025-03-18 14:23:32 +0000.697879][1e07] DeviceStart: time profile
playout all end
[010:422] [2025-03-18 14:23:32 +0000.697945][1e0a]
PlayerSimpleBufferQueueCallbackHandler function
[010:422] [2025-03-18 14:23:32 +0000.698018][1e07] operator(): Audio playback
started.
[010:422] [2025-03-18 14:23:32 +0000.698179][1e08] Pull audio failed.(wait video!)
[010:422] [2025-03-18 14:23:32 +0000.698140][1e0a] NeedMorePlayData No enough
buffers. nSamples: 441(1/100)
[010:422] [2025-03-18 14:23:32 +0000.698260][1e08]
Warning(media_filter_player.cc:409): media pull audio frame failed:4
[010:422] [2025-03-18 14:23:32 +0000.698283][1e09] Error(video_source.cc:430): wait
decoder a frame: 0
[010:422] [2025-03-18 14:23:32 +0000.698315][1e0a]
Warning(audio_device_generic.cc:206): No Audio Processing is done for output datas.
[010:424] [2025-03-18 14:23:32 +0000.700279][1e09] (1/100)OnReceiveVideoFrame,
key_frame: 1, pkt_pts: 900pts ms:10000
[010:425] [2025-03-18 14:23:32 +0000.700539][1e08] (1/100)OnReceiveAudioFrame,
key_frame: 1, pkt_pts: 0
[010:425] [2025-03-18 14:23:32 +0000.700648][1e08] OnAudioFrameReady frame->pts=-
9223372036854775808 (1/100)
[010:425] [2025-03-18 14:23:32 +0000.701112][1e08] audio frame wait video
frame.last_video_timestamp:10 last_audio_timestamp:115.964
[010:422] [2025-03-18 14:23:32 +0000.698155][1e07] operator(): Started now!
[010:430] [2025-03-18 14:23:32 +0000.706212][1e08]
Warning(media_filter_player.cc:409): media pull audio frame failed:4
[010:432] [2025-03-18 14:23:32 +0000.708150][1e07] Create the audio converter 44100
Hz format:1 channels:2 old channels: 0 Hz: 0 format:-1
[010:433] [2025-03-18 14:23:32 +0000.708512][1e07] The audio playback speed:100
(1/100)
[010:433] [2025-03-18 14:23:32 +0000.708591][1e07] lipsync_debug: The current
played audio timestamp is:0(1/50)
[010:433] [2025-03-18 14:23:32 +0000.708653][1e07] First audio frame rendering
[010:436] [2025-03-18 14:23:32 +0000.712354][1e09] OnVideoFrameReady(1/200)
[010:437] [2025-03-18 14:23:32 +0000.712729][1e05] operator() frame->pts-
9223372036854775808 queue_ size: 1 (1/200)
[010:439] [2025-03-18 14:23:32 +0000.714969][1e05] lipsync_debug:displaying video
ts:900 The current displayed video timestamp is:20151451
[010:518] [2025-03-18 14:23:32 +0000.793737][1e05] lipsync_debug: render a video
frame
[010:518] [2025-03-18 14:23:32 +0000.793860][1e05] lipsync_debug: First video frame
rendering.
[010:528] [2025-03-18 14:23:32 +0000.804186][1e05]
lipsync_debug:lipsync_threadhold: lipsync_delta:0 tsDelta:19 timeDelta:89 last
video ts:900 frame->pts:2610 pkt_dts:-9223372036854775808 pkt_pts:-
9223372036854775808
[010:529] [2025-03-18 14:23:32 +0000.804457][1e05] lipsync_debug: tsDelta -
timeDelta = -70
[010:529] [2025-03-18 14:23:32 +0000.804515][1e05] lipsync_debug:result remaining
time:0
[010:529] [2025-03-18 14:23:32 +0000.804572][1e05] dynamic updated lipsync delay:0
[010:558] [2025-03-18 14:23:32 +0000.833498][1df6] av_read_frame AVERROR_EOF
[010:597] [2025-03-18 14:23:32 +0000.872522][1e05] lipsync_debug:remaining time:10
tsDelta - timeDelta:26
[010:597] [2025-03-18 14:23:32 +0000.872681][1e05] lipsync_debug:result remaining
time:10
[010:624] [2025-03-18 14:23:32 +0000.899593][1daf] haveEnoughProcessedData
[Link]: 0
[010:696] [2025-03-18 14:23:32 +0000.971685][1df6] OnReceiveEOF:
[010:696] [2025-03-18 14:23:32 +0000.972116][1df6] OnDecoderEOF time:20151708
enter.
[010:697] [2025-03-18 14:23:32 +0000.972411][1df6] OnDecoderEOF leave. expire time
= 1 ms
[010:697] [2025-03-18 14:23:32 +0000.972469][1df3] CleanUp time:20151709 enter.
[010:697] [2025-03-18 14:23:32 +0000.972478][1df6] OnDecoderFinished:
OnDecoderFinished total decoder frames:23 this:0x7664726480
[010:703] [2025-03-18 14:23:32 +0000.978934][1df3] CleanUp leave. expire time = 6
ms
[010:703] [2025-03-18 14:23:32 +0000.979124][1df3] clean up
[010:703] [2025-03-18 14:23:32 +0000.979197][1df3] running_decoder_count:0max
count:2
[010:712] [2025-03-18 14:23:32 +0000.987838][1e09] video frame wait audio frame:
last_video_timestamp:631 last_audio_timestamp:509.841
[010:712] [2025-03-18 14:23:32 +0000.988013][1e09]
Warning(media_filter_player.cc:442): media pull video error, PullFrameStatus is 4
[010:919] [2025-03-18 14:23:33 +0000.195241][1e08] PullAudioFrame: PullFrame audio
finished.
[010:919] [2025-03-18 14:23:33 +0000.195383][1e08] media player notify EOF, audio
PullFrameStatus is EOF
[010:950] [2025-03-18 14:23:33 +0000.225706][1e08] Pull finished audio filter.
[010:950] [2025-03-18 14:23:33 +0000.225869][1e08] media player notify EOF, audio
PullFrameStatus is EOF
[010:980] [2025-03-18 14:23:33 +0000.256275][1e08] media player notify EOF, audio
PullFrameStatus is EOF
[011:010] [2025-03-18 14:23:33 +0000.285664][1e08] media player notify EOF, audio
PullFrameStatus is EOF
[011:040] [2025-03-18 14:23:33 +0000.316348][1e08] media player notify EOF, audio
PullFrameStatus is EOF
[011:071] [2025-03-18 14:23:33 +0000.347055][1e08] media player notify EOF, audio
PullFrameStatus is EOF
[011:093] [2025-03-18 14:23:33 +0000.369184][1e05] lipsync_debug:displaying video
ts:59670 The current displayed video timestamp is:20152105
[011:102] [2025-03-18 14:23:33 +0000.377560][1e08] media player notify EOF, audio
PullFrameStatus is EOF
[011:132] [2025-03-18 14:23:33 +0000.407857][1e08] media player notify EOF, audio
PullFrameStatus is EOF
[011:163] [2025-03-18 14:23:33 +0000.438450][1e08] media player notify EOF, audio
PullFrameStatus is EOF
[011:171] [2025-03-18 14:23:33 +0000.447068][1e09] OnVideoTimer: media player
notify EOF, PullFrameStatus is EOF and render size is 0
[011:172] [2025-03-18 14:23:33 +0000.447973][1e09] Stop:
[011:175] [2025-03-18 14:23:33 +0000.450629][1e05] operator(): Video Render
stopped.
[011:176] [2025-03-18 14:23:33 +0000.451573][1e09] Stop:
[011:177] [2025-03-18 14:23:33 +0000.453269][1e07] DeviceStop:
audioDevice_:0x7648cc1000
[011:178] [2025-03-18 14:23:33 +0000.453448][1e07] OpenSlesOutput:Stop playout
[011:181] [2025-03-18 14:23:33 +0000.456645][1e07] DeviceStop: Done
[011:181] [2025-03-18 14:23:33 +0000.457016][1e07] Warning(audio_playback.cc:730):
operator(): Audio playback stopped.
[011:182] [2025-03-18 14:23:33 +0000.457783][1e09] to reset filter graph
[011:182] [2025-03-18 14:23:33 +0000.457891][1e09] RemoveVideoBackGroud: hava not
add video backgroud
[011:182] [2025-03-18 14:23:33 +0000.457988][1e09] UnbindInputFilter 0x765879ed58
this 0x76491d49a0
[011:182] [2025-03-18 14:23:33 +0000.458074][1e09] ClearAllSource: remove source
filter, sourceid: 0x7664726480
[011:182] [2025-03-18 14:23:33 +0000.458130][1e09] DestoryDecoderByVideoSource
time:20152194 enter.
[011:182] [2025-03-18 14:23:33 +0000.458192][1e09] ~VideoBindDecoder time:20152194
enter.
[011:183] [2025-03-18 14:23:33 +0000.458562][1e09] CleanUp time:20152195 enter.
[011:183] [2025-03-18 14:23:33 +0000.459366][1e09] CleanUp leave. expire time = 0
ms
[011:184] [2025-03-18 14:23:33 +0000.459496][1e09] CleanUp time:20152196 enter.
[011:184] [2025-03-18 14:23:33 +0000.459982][1e09] CleanUp leave. expire time = 0
ms
[011:185] [2025-03-18 14:23:33 +0000.461186][1e09] ~VideoBindDecoder leave. expire
time = 3 ms
[011:185] [2025-03-18 14:23:33 +0000.461307][1e09] DestoryDecoderByVideoSource
leave. expire time = 3 ms
[011:185] [2025-03-18 14:23:33 +0000.461402][1e09] UnbindInputFilter 0x765879eb18
this 0x765879ed58
[011:186] [2025-03-18 14:23:33 +0000.461487][1e09] UnbindInputFilter 0x765879ea58
this 0x765879eb18
[011:186] [2025-03-18 14:23:33 +0000.461568][1e09] UnbindInputFilter 0x76647266a0
this 0x765879ea58
[011:186] [2025-03-18 14:23:33 +0000.461649][1e09] UnbindInputFilter 0x765879ec98
this 0x765879ee18
[011:186] [2025-03-18 14:23:33 +0000.461729][1e09] UnbindInputFilter 0x765879ebd8
this 0x765879ec98
[011:186] [2025-03-18 14:23:33 +0000.461809][1e09] UnbindInputFilter 0x76647266a0
this 0x765879ebd8
[011:186] [2025-03-18 14:23:33 +0000.461897][1e09] to reset filter graph clear end
[011:186] [2025-03-18 14:23:33 +0000.461954][1e09] AddVideoSource: add video
source:
/data/user/0/[Link]/no_backup/milive//record_video_20149528.mp4, delay:
0
[011:186] [2025-03-18 14:23:33 +0000.462029][1e09] CreateDecoderByVideoSource
time:20152198 enter.
[011:187] [2025-03-18 14:23:33 +0000.463170][1e09] running_decoder_count:0max
count:2
[011:187] [2025-03-18 14:23:33 +0000.463302][1e09] Start decoding file
/data/user/0/[Link]/no_backup/milive//record_video_20149528.mp4,
sync_mode: 1, seek_pos: 0, delay: 0, this:0x76e5651000
[011:189] [2025-03-18 14:23:33 +0000.465107][1e0f] FFMpeg=>
[mov,mp4,m4a,3gp,3g2,mj2 @ 0x766b29e800] Current FFmpeg version git-2021-06-16-
97cea6f
[011:402] [2025-03-18 14:23:33 +0000.677966][1e0f] OnStreamInfoFound: video
duration_: 774
[011:405] [2025-03-18 14:23:33 +0000.680595][1e09] start decoder
[011:405] [2025-03-18 14:23:33 +0000.680767][1e09] CreateDecoderByVideoSource
leave. expire time = 219 ms
[011:405] [2025-03-18 14:23:33 +0000.680890][1e09] BindInputFilter 0x76647266a0
this 0x766470c9d8
[011:405] [2025-03-18 14:23:33 +0000.680976][1e09] BindInputFilter 0x766470c9d8
this 0x765869ffd8
[011:405] [2025-03-18 14:23:33 +0000.681076][1e09] BindInputFilter 0x76647266a0
this 0x765879ea58
[011:405] [2025-03-18 14:23:33 +0000.681155][1e09] BindInputFilter 0x765879ea58
this 0x765879eb18
[011:407] [2025-03-18 14:23:33 +0000.682927][1e09] AddVideoSource: source filter
list is empty, add first:
/data/user/0/[Link]/no_backup/milive//record_video_20149528.mp4
[011:407] [2025-03-18 14:23:33 +0000.683081][1e09] BindInputFilter 0x765869ffd8
this 0x765879ebd8
[011:407] [2025-03-18 14:23:33 +0000.683162][1e09] BindInputFilter 0x765879ebd8
this 0x76491d49a0
[011:407] [2025-03-18 14:23:33 +0000.683241][1e09] BindInputFilter 0x765879eb18
this 0x765879ec98
[011:407] [2025-03-18 14:23:33 +0000.683318][1e09] AddVideoSource: END add video
source: /data/user/0/[Link]/no_backup/milive//record_video_20149528.mp4
[011:407] [2025-03-18 14:23:33 +0000.683389][1e09] to reset filter graph end
[011:408] [2025-03-18 14:23:33 +0000.683562][1e09] Start:
[011:408] [2025-03-18 14:23:33 +0000.683706][1e05] operator(): video render
started.
[011:408] [2025-03-18 14:23:33 +0000.683806][1e10] NO get frame from decoder
[011:408] [2025-03-18 14:23:33 +0000.683892][1e09] Start:
[011:408] [2025-03-18 14:23:33 +0000.684222][1e07] Reset: volume estimator reset
frequency : 44100 history size(ms): 5000
[011:408] [2025-03-18 14:23:33 +0000.684338][1e07] Reset: history total size: 98
[011:409] [2025-03-18 14:23:33 +0000.684409][1e07] DeviceStart:
audioDevice_:0x7648cc1000
[011:409] [2025-03-18 14:23:33 +0000.684468][1e07] DeviceStart: time profile
playout init before
[011:409] [2025-03-18 14:23:33 +0000.684527][1e07] DeviceStart: time profile
playout init end
[011:409] [2025-03-18 14:23:33 +0000.684585][1e07] OpenSlesOutput:Start playout
[011:409] [2025-03-18 14:23:33 +0000.684990][1e10] NO get frame from decoder
[011:410] [2025-03-18 14:23:33 +0000.685726][1e07] Create the opensl output player.
streamtype before:0
[011:410] [2025-03-18 14:23:33 +0000.685849][1e07] Create the opensl output player.
streamtype after:3
[011:410] [2025-03-18 14:23:33 +0000.686185][1e10] NO get frame from decoder
[011:413] [2025-03-18 14:23:33 +0000.689058][1e10] NO get frame from decoder
[011:416] [2025-03-18 14:23:33 +0000.691620][1e10] NO get frame from decoder
[011:420] [2025-03-18 14:23:33 +0000.695949][1e10] NO get frame from decoder
[011:423] [2025-03-18 14:23:33 +0000.698500][1e10] NO get frame from decoder
[011:425] [2025-03-18 14:23:33 +0000.700835][1e10] NO get frame from decoder
[011:431] [2025-03-18 14:23:33 +0000.706880][1e07] Enqueue opensl buffer size:1764
[011:441] [2025-03-18 14:23:33 +0000.717413][1e07] DeviceStart: time profile
playout all end
[011:442] [2025-03-18 14:23:33 +0000.717603][1e07] operator(): Audio playback
started.
[011:444] [2025-03-18 14:23:33 +0000.719796][1e1c]
Warning(audio_device_generic.cc:206): No Audio Processing is done for output datas.
[011:447] [2025-03-18 14:23:33 +0000.722832][1e08] Pull audio failed.(wait video!)
[011:449] [2025-03-18 14:23:33 +0000.724429][1e08]
Warning(media_filter_player.cc:409): media pull audio frame failed:4
[011:472] [2025-03-18 14:23:33 +0000.747954][1e08] audio frame wait video
frame.last_video_timestamp:10 last_audio_timestamp:115.964
[011:472] [2025-03-18 14:23:33 +0000.747933][1e07] First audio frame rendering
[011:475] [2025-03-18 14:23:33 +0000.753448][1e05] lipsync_debug: First video frame
rendering.
[011:538] [2025-03-18 14:23:33 +0000.814303][1e08]
Warning(media_filter_player.cc:409): media pull audio frame failed:4
[011:541] [2025-03-18 14:23:33 +0000.816795][1e08] audio frame wait video
frame.last_video_timestamp:129 last_audio_timestamp:231.927
[011:646] [2025-03-18 14:23:33 +0000.921772][1e10] av_read_frame AVERROR_EOF
[011:708] [2025-03-18 14:23:33 +0000.983882][1e09] Error(video_source.cc:430): wait
decoder a frame: 0
[011:721] [2025-03-18 14:23:33 +0000.996714][1e10] OnReceiveEOF:
[011:721] [2025-03-18 14:23:33 +0000.997041][1e10] OnDecoderEOF time:20152733
enter.
[011:721] [2025-03-18 14:23:33 +0000.997294][1e10] OnDecoderEOF leave. expire time
= 0 ms
[011:721] [2025-03-18 14:23:33 +0000.997318][1df3] CleanUp time:20152733 enter.
[011:721] [2025-03-18 14:23:33 +0000.997392][1e10] OnDecoderFinished:
OnDecoderFinished total decoder frames:23 this:0x7664726480
[011:726] [2025-03-18 14:23:34 +0000.1802][1df3] CleanUp leave. expire time = 5 ms
[011:726] [2025-03-18 14:23:34 +0000.1940][1df3] clean up
[011:726] [2025-03-18 14:23:34 +0000.1998][1df3] running_decoder_count:0max count:2
[012:012] [2025-03-18 14:23:34 +0000.288106][1e08] PullAudioFrame: PullFrame audio
finished.
[012:012] [2025-03-18 14:23:34 +0000.288246][1e08] media player notify EOF, audio
PullFrameStatus is EOF
[012:040] [2025-03-18 14:23:34 +0000.315729][1e05] lipsync_debug:displaying video
ts:52020 The current displayed video timestamp is:20153052
[012:043] [2025-03-18 14:23:34 +0000.318655][1e08] media player notify EOF, audio
PullFrameStatus is EOF
[012:073] [2025-03-18 14:23:34 +0000.349185][1e08] media player notify EOF, audio
PullFrameStatus is EOF
[012:104] [2025-03-18 14:23:34 +0000.379847][1e08] media player notify EOF, audio
PullFrameStatus is EOF
[012:134] [2025-03-18 14:23:34 +0000.410218][1e08] media player notify EOF, audio
PullFrameStatus is EOF
[012:165] [2025-03-18 14:23:34 +0000.440959][1e08] media player notify EOF, audio
PullFrameStatus is EOF
[012:195] [2025-03-18 14:23:34 +0000.471298][1e08] media player notify EOF, audio
PullFrameStatus is EOF
[012:204] [2025-03-18 14:23:34 +0000.479927][1e09] OnVideoTimer: media player
notify EOF, PullFrameStatus is EOF and render size is 0
[012:204] [2025-03-18 14:23:34 +0000.480228][1e09] Stop:
[012:207] [2025-03-18 14:23:34 +0000.482924][1e05] operator(): Video Render
stopped.
[012:207] [2025-03-18 14:23:34 +0000.483182][1e09] Stop:
[012:207] [2025-03-18 14:23:34 +0000.483299][1e07] DeviceStop:
audioDevice_:0x7648cc1000
[012:207] [2025-03-18 14:23:34 +0000.483374][1e07] OpenSlesOutput:Stop playout
[012:210] [2025-03-18 14:23:34 +0000.486184][1e07] DeviceStop: Done
[012:211] [2025-03-18 14:23:34 +0000.486563][1e07] Warning(audio_playback.cc:730):
operator(): Audio playback stopped.
[012:211] [2025-03-18 14:23:34 +0000.487005][1e09] to reset filter graph
[012:211] [2025-03-18 14:23:34 +0000.487129][1e09] RemoveVideoBackGroud: hava not
add video backgroud
[012:211] [2025-03-18 14:23:34 +0000.487279][1e09] UnbindInputFilter 0x765879ebd8
this 0x76491d49a0
[012:212] [2025-03-18 14:23:34 +0000.487509][1e09] ClearAllSource: remove source
filter, sourceid: 0x7664726480
[012:212] [2025-03-18 14:23:34 +0000.487593][1e09] DestoryDecoderByVideoSource
time:20153224 enter.
[012:212] [2025-03-18 14:23:34 +0000.487739][1e09] ~VideoBindDecoder time:20153224
enter.
[012:212] [2025-03-18 14:23:34 +0000.487999][1e09] CleanUp time:20153224 enter.
[012:213] [2025-03-18 14:23:34 +0000.488438][1e09] CleanUp leave. expire time = 1
ms
[012:213] [2025-03-18 14:23:34 +0000.488547][1e09] CleanUp time:20153225 enter.
[012:213] [2025-03-18 14:23:34 +0000.488874][1e09] CleanUp leave. expire time = 0
ms
[012:214] [2025-03-18 14:23:34 +0000.490216][1e09] ~VideoBindDecoder leave. expire
time = 2 ms
[012:214] [2025-03-18 14:23:34 +0000.490343][1e09] DestoryDecoderByVideoSource
leave. expire time = 2 ms
[012:215] [2025-03-18 14:23:34 +0000.490439][1e09] UnbindInputFilter 0x765869ffd8
this 0x765879ebd8
[012:215] [2025-03-18 14:23:34 +0000.490524][1e09] UnbindInputFilter 0x766470c9d8
this 0x765869ffd8
[012:215] [2025-03-18 14:23:34 +0000.490607][1e09] UnbindInputFilter 0x76647266a0
this 0x766470c9d8
[012:215] [2025-03-18 14:23:34 +0000.490691][1e09] UnbindInputFilter 0x765879eb18
this 0x765879ec98
[012:215] [2025-03-18 14:23:34 +0000.490771][1e09] UnbindInputFilter 0x765879ea58
this 0x765879eb18
[012:215] [2025-03-18 14:23:34 +0000.490851][1e09] UnbindInputFilter 0x76647266a0
this 0x765879ea58
[012:215] [2025-03-18 14:23:34 +0000.490979][1e09] to reset filter graph clear end
[012:215] [2025-03-18 14:23:34 +0000.491036][1e09] AddVideoSource: add video
source:
/data/user/0/[Link]/no_backup/milive//record_video_20149528.mp4, delay:
0
[012:215] [2025-03-18 14:23:34 +0000.491104][1e09] CreateDecoderByVideoSource
time:20153227 enter.
[012:216] [2025-03-18 14:23:34 +0000.491503][1e09] running_decoder_count:0max
count:2
[012:216] [2025-03-18 14:23:34 +0000.491576][1e09] Start decoding file
/data/user/0/[Link]/no_backup/milive//record_video_20149528.mp4,
sync_mode: 1, seek_pos: 0, delay: 0, this:0x76e5651000
[012:217] [2025-03-18 14:23:34 +0000.492803][1e1e] FFMpeg=>
[mov,mp4,m4a,3gp,3g2,mj2 @ 0x766b29e800] Current FFmpeg version git-2021-06-16-
97cea6f
[012:313] [2025-03-18 14:23:34 +0000.589324][1daf] Run AGC when audioType = 0
[012:314] [2025-03-18 14:23:34 +0000.589574][1daf]
AudioDeviceDataHandler::MixAndSendOutFrame
[012:355] [2025-03-18 14:23:34 +0000.630684][1daf] haveEnoughProcessedData
[Link]: 10
[012:417] [2025-03-18 14:23:34 +0000.693046][1e1e] OnStreamInfoFound: video
duration_: 774
[012:420] [2025-03-18 14:23:34 +0000.695622][1e09] start decoder
[012:420] [2025-03-18 14:23:34 +0000.695768][1e09] CreateDecoderByVideoSource
leave. expire time = 205 ms
[012:420] [2025-03-18 14:23:34 +0000.695880][1e09] BindInputFilter 0x76647266a0
this 0x765869db18
[012:420] [2025-03-18 14:23:34 +0000.695963][1e09] BindInputFilter 0x765869db18
this 0x765869ffd8
[012:420] [2025-03-18 14:23:34 +0000.696050][1e09] BindInputFilter 0x76647266a0
this 0x765879ea58
[012:420] [2025-03-18 14:23:34 +0000.696139][1e09] BindInputFilter 0x765879ea58
this 0x765879eb18
[012:423] [2025-03-18 14:23:34 +0000.698902][1e1f] NO get frame from decoder
[012:420] [2025-03-18 14:23:34 +0000.696196][1e09] AddVideoSource: source filter
list is empty, add first:
/data/user/0/[Link]/no_backup/milive//record_video_20149528.mp4
[012:424] [2025-03-18 14:23:34 +0000.699827][1e09] BindInputFilter 0x765869ffd8
this 0x765879ebd8
[012:424] [2025-03-18 14:23:34 +0000.699937][1e09] BindInputFilter 0x765879ebd8
this 0x76491d49a0
[012:424] [2025-03-18 14:23:34 +0000.700032][1e09] BindInputFilter 0x765879eb18
this 0x765879ec98
[012:424] [2025-03-18 14:23:34 +0000.700125][1e09] AddVideoSource: END add video
source: /data/user/0/[Link]/no_backup/milive//record_video_20149528.mp4
[012:424] [2025-03-18 14:23:34 +0000.700195][1e09] to reset filter graph end
[012:424] [2025-03-18 14:23:34 +0000.700287][1e09] Start:
[012:425] [2025-03-18 14:23:34 +0000.700471][1e05] operator(): video render
started.
[012:425] [2025-03-18 14:23:34 +0000.700473][1e1f] NO get frame from decoder
[012:425] [2025-03-18 14:23:34 +0000.700706][1e09] Start:
[012:425] [2025-03-18 14:23:34 +0000.701068][1e07] Reset: volume estimator reset
frequency : 44100 history size(ms): 5000
[012:425] [2025-03-18 14:23:34 +0000.701172][1e07] Reset: history total size: 98
[012:425] [2025-03-18 14:23:34 +0000.701236][1e1f] NO get frame from decoder
[012:425] [2025-03-18 14:23:34 +0000.701256][1e07] DeviceStart:
audioDevice_:0x7648cc1000
[012:425] [2025-03-18 14:23:34 +0000.701384][1e07] DeviceStart: time profile
playout init before
[012:426] [2025-03-18 14:23:34 +0000.701451][1e07] DeviceStart: time profile
playout init end
[012:426] [2025-03-18 14:23:34 +0000.701503][1e07] OpenSlesOutput:Start playout
[012:426] [2025-03-18 14:23:34 +0000.702024][1e1f] NO get frame from decoder
[012:427] [2025-03-18 14:23:34 +0000.703332][1e1f] NO get frame from decoder
[012:428] [2025-03-18 14:23:34 +0000.704340][1e1f] NO get frame from decoder
[012:429] [2025-03-18 14:23:34 +0000.704583][1e07] Create the opensl output player.
streamtype before:0
[012:429] [2025-03-18 14:23:34 +0000.704760][1e07] Create the opensl output player.
streamtype after:3
[012:432] [2025-03-18 14:23:34 +0000.707876][1e1f] NO get frame from decoder
[012:437] [2025-03-18 14:23:34 +0000.712716][1e1f] NO get frame from decoder
[012:492] [2025-03-18 14:23:34 +0000.768229][1e07] Enqueue opensl buffer size:1764
[012:506] [2025-03-18 14:23:34 +0000.782272][1e05] DriveRender working... (1/200)
[012:562] [2025-03-18 14:23:34 +0000.837952][1e07] DeviceStart: time profile
playout all end
[012:562] [2025-03-18 14:23:34 +0000.838085][1e07] operator(): Audio playback
started.
[012:566] [2025-03-18 14:23:34 +0000.841965][1e08]
Warning(media_filter_player.cc:409): media pull audio frame failed:4
[012:572] [2025-03-18 14:23:34 +0000.847810][1e07] First audio frame rendering
[012:583] [2025-03-18 14:23:34 +0000.859148][1e05] lipsync_debug: First video frame
rendering.
[012:648] [2025-03-18 14:23:34 +0000.923846][1e2a]
Warning(audio_device_generic.cc:206): No Audio Processing is done for output datas.
[012:652] [2025-03-18 14:23:34 +0000.927863][1e08] audio frame wait video
frame.last_video_timestamp:158 last_audio_timestamp:277.914
[012:653] [2025-03-18 14:23:34 +0000.928596][1e08]
Warning(media_filter_player.cc:409): media pull audio frame failed:4
[012:657] [2025-03-18 14:23:34 +0000.932791][1e08] audio frame wait video
frame.last_video_timestamp:158 last_audio_timestamp:277.914
[012:658] [2025-03-18 14:23:34 +0000.933696][1e08]
Warning(media_filter_player.cc:409): media pull audio frame failed:4
[012:680] [2025-03-18 14:23:34 +0000.956329][1e08] audio frame wait video
frame.last_video_timestamp:193 last_audio_timestamp:300.907
[012:682] [2025-03-18 14:23:34 +0000.957423][1e08]
Warning(media_filter_player.cc:409): media pull audio frame failed:4
[012:690] [2025-03-18 14:23:34 +0000.966182][1e08] audio frame wait video
frame.last_video_timestamp:229 last_audio_timestamp:347.891
[012:691] [2025-03-18 14:23:34 +0000.966934][1e08]
Warning(media_filter_player.cc:409): media pull audio frame failed:4
[012:698] [2025-03-18 14:23:34 +0000.974049][1e08] audio frame wait video
frame.last_video_timestamp:229 last_audio_timestamp:347.891
[012:702] [2025-03-18 14:23:34 +0000.977830][1e1f] av_read_frame AVERROR_EOF
[012:703] [2025-03-18 14:23:34 +0000.979338][1e08]
Warning(media_filter_player.cc:409): media pull audio frame failed:4
[012:708] [2025-03-18 14:23:34 +0000.983636][1e08] audio frame wait video
frame.last_video_timestamp:229 last_audio_timestamp:347.891
[012:708] [2025-03-18 14:23:34 +0000.984347][1e08]
Warning(media_filter_player.cc:409): media pull audio frame failed:4
[012:713] [2025-03-18 14:23:34 +0000.988700][1e08] audio frame wait video
frame.last_video_timestamp:261 last_audio_timestamp:370.884
[012:713] [2025-03-18 14:23:34 +0000.989383][1e08]
Warning(media_filter_player.cc:409): media pull audio frame failed:4
[012:724] [2025-03-18 14:23:34 +0000.999939][1e08] audio frame wait video
frame.last_video_timestamp:261 last_audio_timestamp:370.884
[012:725] [2025-03-18 14:23:35 +0000.672][1e08]
Warning(media_filter_player.cc:409): media pull audio frame failed:4
[012:729] [2025-03-18 14:23:35 +0000.5146][1e08] audio frame wait video
frame.last_video_timestamp:261 last_audio_timestamp:370.884
[012:730] [2025-03-18 14:23:35 +0000.5971][1e08]
Warning(media_filter_player.cc:409): media pull audio frame failed:4
[012:734] [2025-03-18 14:23:35 +0000.9970][1e08] audio frame wait video
frame.last_video_timestamp:261 last_audio_timestamp:370.884
[012:735] [2025-03-18 14:23:35 +0000.10677][1e08]
Warning(media_filter_player.cc:409): media pull audio frame failed:4
[012:789] [2025-03-18 14:23:35 +0000.65241][1e1f] OnReceiveEOF:
[012:790] [2025-03-18 14:23:35 +0000.65419][1e1f] OnDecoderEOF time:20153802
enter.
[012:790] [2025-03-18 14:23:35 +0000.65534][1e1f] OnDecoderEOF leave. expire time
= 0 ms
[012:790] [2025-03-18 14:23:35 +0000.65570][1df3] CleanUp time:20153802 enter.
[012:790] [2025-03-18 14:23:35 +0000.65687][1e1f] OnDecoderFinished:
OnDecoderFinished total decoder frames:23 this:0x7664726480
[012:796] [2025-03-18 14:23:35 +0000.72341][1df3] CleanUp leave. expire time = 6
ms
[012:797] [2025-03-18 14:23:35 +0000.72478][1df3] clean up
[012:797] [2025-03-18 14:23:35 +0000.72535][1df3] running_decoder_count:0max
count:2
[012:945] [2025-03-18 14:23:35 +0000.220458][1e05]
lipsync_debug:lipsync_threadhold: lipsync_delta:0 tsDelta:34 timeDelta:16 last
video ts:32490 frame->pts:35550 pkt_dts:-9223372036854775808 pkt_pts:-
9223372036854775808
[012:945] [2025-03-18 14:23:35 +0000.220634][1e05] lipsync_debug: tsDelta -
timeDelta = 18
[013:035] [2025-03-18 14:23:35 +0000.310755][1e05] lipsync_debug:displaying video
ts:42030 The current displayed video timestamp is:20154047
[013:112] [2025-03-18 14:23:35 +0000.388020][1e08] PullAudioFrame: PullFrame audio
finished.
[013:112] [2025-03-18 14:23:35 +0000.388182][1e08] media player notify EOF, audio
PullFrameStatus is EOF
[013:142] [2025-03-18 14:23:35 +0000.418415][1e08] media player notify EOF, audio
PullFrameStatus is EOF
[013:173] [2025-03-18 14:23:35 +0000.448919][1e08] media player notify EOF, audio
PullFrameStatus is EOF
[013:204] [2025-03-18 14:23:35 +0000.479484][1e08] media player notify EOF, audio
PullFrameStatus is EOF
[013:231] [2025-03-18 14:23:35 +0000.506922][10ef]
Java_com_xiaomi_recordmediaprocess_EffectMediaPlayer_StopPreViewJni:
[013:232] [2025-03-18 14:23:35 +0000.507895][1e07] Stop:
[013:236] [2025-03-18 14:23:35 +0000.512303][1e05] operator(): Video Render
stopped.
[013:237] [2025-03-18 14:23:35 +0000.512619][1e07] Stop:
[013:237] [2025-03-18 14:23:35 +0000.512708][1e07] DeviceStop:
audioDevice_:0x7648cc1000
[013:237] [2025-03-18 14:23:35 +0000.512784][1e07] OpenSlesOutput:Stop playout
[013:242] [2025-03-18 14:23:35 +0000.517840][1e07] DeviceStop: Done
[013:242] [2025-03-18 14:23:35 +0000.518147][1e07] Warning(audio_playback.cc:730):
operator(): Audio playback stopped.
[013:242] [2025-03-18 14:23:35 +0000.518237][1e07] operator(): Stop now!
[013:277] [2025-03-18 14:23:35 +0000.553069][10ef]
Java_com_xiaomi_recordmediaprocess_EffectMediaPlayer_DestructMediaPlayerJni:
[013:277] [2025-03-18 14:23:35 +0000.553234][10ef] StopPreView: Have Stopped,
operation cancel
[013:277] [2025-03-18 14:23:35 +0000.553301][10ef] Stop:
[013:278] [2025-03-18 14:23:35 +0000.553494][1e07] Warning(audio_playback.cc:715):
operator(): Audio playback not started. Operation cancelled.
[013:278] [2025-03-18 14:23:35 +0000.553786][10ef] DeviceRelease:
audioDevice_:0x7648cc1000
[013:278] [2025-03-18 14:23:35 +0000.553853][10ef] OpenSlesOutput:Stop playout
[013:278] [2025-03-18 14:23:35 +0000.553929][10ef] DeviceRelease: Release the
webrtc device object.
[013:278] [2025-03-18 14:23:35 +0000.554297][10ef] OpenSlesOutput destruct.
[013:279] [2025-03-18 14:23:35 +0000.554448][10ef] DeviceRelease: Done
[013:279] [2025-03-18 14:23:35 +0000.554670][10ef] Stop:
[013:279] [2025-03-18 14:23:35 +0000.554851][1e05] Warning(video_render.cc:349):
operator(): video render not started. Operation cancelled.
[013:285] [2025-03-18 14:23:35 +0000.561283][10ef] global uninited!
[013:287] [2025-03-18 14:23:35 +0000.562751][10ef]
Java_com_xiaomi_recordmediaprocess_MediaEffectGraph_DestructMediaEffectGraphJni:
[013:287] [2025-03-18 14:23:35 +0000.562944][10ef] ~MediaFilterGraph:
MediaFilterGraph destruct
[013:287] [2025-03-18 14:23:35 +0000.563008][10ef] RemoveVideoBackGroud: hava not
add video backgroud
[013:287] [2025-03-18 14:23:35 +0000.563100][10ef] UnbindInputFilter 0x765879ebd8
this 0x76491d49a0
[013:287] [2025-03-18 14:23:35 +0000.563187][10ef] ClearAllSource: remove source
filter, sourceid: 0x7664726480
[013:287] [2025-03-18 14:23:35 +0000.563240][10ef] DestoryDecoderByVideoSource
time:20154299 enter.
[013:287] [2025-03-18 14:23:35 +0000.563305][10ef] ~VideoBindDecoder time:20154299
enter.
[013:288] [2025-03-18 14:23:35 +0000.563901][10ef] CleanUp time:20154300 enter.
[013:289] [2025-03-18 14:23:35 +0000.564592][10ef] CleanUp leave. expire time = 1
ms
[013:289] [2025-03-18 14:23:35 +0000.564675][10ef] CleanUp time:20154301 enter.
[013:290] [2025-03-18 14:23:35 +0000.565953][10ef] CleanUp leave. expire time = 1
ms
[013:292] [2025-03-18 14:23:35 +0000.567922][10ef] ~VideoBindDecoder leave. expire
time = 5 ms
[013:292] [2025-03-18 14:23:35 +0000.568044][10ef] DestoryDecoderByVideoSource
leave. expire time = 5 ms
[013:292] [2025-03-18 14:23:35 +0000.568170][10ef] UnbindInputFilter 0x765869ffd8
this 0x765879ebd8
[013:292] [2025-03-18 14:23:35 +0000.568264][10ef] UnbindInputFilter 0x765869db18
this 0x765869ffd8
[013:292] [2025-03-18 14:23:35 +0000.568349][10ef] UnbindInputFilter 0x76647266a0
this 0x765869db18
[013:293] [2025-03-18 14:23:35 +0000.568497][10ef] UnbindInputFilter 0x765879eb18
this 0x765879ec98
[013:293] [2025-03-18 14:23:35 +0000.568577][10ef] UnbindInputFilter 0x765879ea58
this 0x765879eb18
[013:293] [2025-03-18 14:23:35 +0000.568658][10ef] UnbindInputFilter 0x76647266a0
this 0x765879ea58
[013:293] [2025-03-18 14:23:35 +0000.568760][10ef] ~GLESContext:
[013:294] [2025-03-18 14:23:35 +0000.569982][10ef] GLESContext destruct finish.
[013:294] [2025-03-18 14:23:35 +0000.570085][10ef] filter: filter pipeline destroy
this: 0x76491d4900
[013:295] [2025-03-18 14:23:35 +0000.571097][10ef]
Java_com_xiaomi_recordmediaprocess_MediaEffectGraph_ConstructMediaEffectGraphJni:
[013:297] [2025-03-18 14:23:35 +0000.572589][10ef] machine model :redmi
[013:297] [2025-03-18 14:23:35 +0000.572739][10ef] Support this machine
model :redmi
[013:297] [2025-03-18 14:23:35 +0000.572804][10ef] global inited! current sdk
version: 12-14-d8558ab
[013:297] [2025-03-18 14:23:35 +0000.573181][10ef] filter: filter pipeline
construtc this: 0x76edc6d400
[013:297] [2025-03-18 14:23:35 +0000.573277][10ef] MediaFilterGraph:
MediaFilterGraph construct
[013:297] [2025-03-18 14:23:35 +0000.573338][10ef] GLESContext:
[013:298] [2025-03-18 14:23:35 +0000.573446][10ef] The result of eglGetDisplay is:
0x1
[013:300] [2025-03-18 14:23:35 +0000.575952][10ef] The result of creation:
0x7658859100
[013:300] [2025-03-18 14:23:35 +0000.576215][10ef] The result of
eglCreatePbufferSurface is: 0x7658859200
[013:301] [2025-03-18 14:23:35 +0000.576419][10ef] The source 0
path:/data/user/0/[Link]/no_backup/milive//record_video_20149528.mp4
[013:301] [2025-03-18 14:23:35 +0000.576512][10ef] The source 0 speed:1
[013:301] [2025-03-18 14:23:35 +0000.576597][10ef] AddVideoSource: add video
source:
/data/user/0/[Link]/no_backup/milive//record_video_20149528.mp4, delay:
0
[013:301] [2025-03-18 14:23:35 +0000.576682][10ef] CreateDecoderByVideoSource
time:20154313 enter.
[013:301] [2025-03-18 14:23:35 +0000.577083][10ef] running_decoder_count:0max
count:2
[013:301] [2025-03-18 14:23:35 +0000.577166][10ef] Start decoding file
/data/user/0/[Link]/no_backup/milive//record_video_20149528.mp4,
sync_mode: 1, seek_pos: 0, delay: 0, this:0x765842a400
[013:303] [2025-03-18 14:23:35 +0000.578430][1e33] FFMpeg=>
[mov,mp4,m4a,3gp,3g2,mj2 @ 0x766b29e800] Current FFmpeg version git-2021-06-16-
97cea6f
[013:506] [2025-03-18 14:23:35 +0000.781811][1e33] OnStreamInfoFound: video
duration_: 774
[013:511] [2025-03-18 14:23:35 +0000.787343][10ef] start decoder
[013:512] [2025-03-18 14:23:35 +0000.787502][10ef] CreateDecoderByVideoSource
leave. expire time = 211 ms
[013:512] [2025-03-18 14:23:35 +0000.787605][10ef] BindInputFilter 0x76647266a0
this 0x764db345d8
[013:512] [2025-03-18 14:23:35 +0000.787689][10ef] BindInputFilter 0x764db345d8
this 0x764db34698
[013:512] [2025-03-18 14:23:35 +0000.787773][10ef] BindInputFilter 0x76647266a0
this 0x764db34758
[013:512] [2025-03-18 14:23:35 +0000.787852][10ef] BindInputFilter 0x764db34758
this 0x764db34818
[013:512] [2025-03-18 14:23:35 +0000.787904][10ef] AddVideoSource: source filter
list is empty, add first:
/data/user/0/[Link]/no_backup/milive//record_video_20149528.mp4
[013:512] [2025-03-18 14:23:35 +0000.787986][10ef] BindInputFilter 0x764db34698
this 0x764db348d8
[013:512] [2025-03-18 14:23:35 +0000.788064][10ef] BindInputFilter 0x764db348d8
this 0x76edc6d4a0
[013:512] [2025-03-18 14:23:35 +0000.788141][10ef] BindInputFilter 0x764db34818
this 0x764db34998
[013:512] [2025-03-18 14:23:35 +0000.788219][10ef] AddVideoSource: END add video
source: /data/user/0/[Link]/no_backup/milive//record_video_20149528.mp4
[013:515] [2025-03-18 14:23:35 +0000.790600][1e36] NO get frame from decoder
[013:516] [2025-03-18 14:23:35 +0000.791821][1e36] NO get frame from decoder
[013:518] [2025-03-18 14:23:35 +0000.793686][1e36] NO get frame from decoder
[013:519] [2025-03-18 14:23:35 +0000.795132][1e36] NO get frame from decoder
[013:522] [2025-03-18 14:23:35 +0000.797644][1e36] NO get frame from decoder
[013:524] [2025-03-18 14:23:35 +0000.799679][1e36] NO get frame from decoder
[013:525] [2025-03-18 14:23:35 +0000.800488][1e36] NO get frame from decoder
[013:526] [2025-03-18 14:23:35 +0000.801507][1e36] NO get frame from decoder
[013:529] [2025-03-18 14:23:35 +0000.804972][10ef]
Java_com_xiaomi_recordmediaprocess_MediaComposeFile_ConstructMediaComposeFileJni:
[013:529] [2025-03-18 14:23:35 +0000.805324][10ef] MediaComposeFile time:20154541
enter.
[013:530] [2025-03-18 14:23:35 +0000.805413][10ef] RecordingSessionInternalSimple:
Create session internal:720 X 1280 fps:30
[013:530] [2025-03-18 14:23:35 +0000.805632][10ef] createSessionInternal: create
session with video size:720 X 1280 fps:30 bitrate:14680064
[013:530] [2025-03-18 14:23:35 +0000.805713][10ef] Recording session using default
bitrate support by app:14680064
[013:533] [2025-03-18 14:23:35 +0000.808625][1e45] Error([Link]): Set the
pthread name failed with error:34 name:Thread 0x0x76588a61c0
[013:533] [2025-03-18 14:23:35 +0000.808801][1e45] setAudioChannelCount_w:
RecordingSessionInternalSimple:set the audio channel count:2
[013:533] [2025-03-18 14:23:35 +0000.808986][10ef] setAudioSampleRate:
RecordingSessionInternalSimple:set the audio bitrate:44100
[013:533] [2025-03-18 14:23:35 +0000.809305][10ef] GetPipeline:
-----------------------------------------
[013:533] [2025-03-18 14:23:35 +0000.809383][10ef] GetPipeline: source:
0x7664726480
[013:534] [2025-03-18 14:23:35 +0000.809454][10ef] GetPipeline: filter: NULLFilter
[013:534] [2025-03-18 14:23:35 +0000.809521][10ef] GetPipeline: filter: NULLFilter
[013:534] [2025-03-18 14:23:35 +0000.809588][10ef] GetPipeline: filter: NULLFilter
[013:534] [2025-03-18 14:23:35 +0000.809653][10ef] GetPipeline: audio filter:
AuidoNULLFilter
[013:534] [2025-03-18 14:23:35 +0000.809719][10ef] GetPipeline: audio filter:
AuidoNULLFilter
[013:534] [2025-03-18 14:23:35 +0000.809784][10ef] GetPipeline: audio filter:
AudioNUllFilter
[013:534] [2025-03-18 14:23:35 +0000.809850][10ef] GetPipeline:
------------------------------------------
[013:534] [2025-03-18 14:23:35 +0000.809919][10ef] filter: filter pipeline2 update
pattern: 2
[013:534] [2025-03-18 14:23:35 +0000.810334][10ef] MediaComposeFile leave. expire
time = 5 ms
[013:535] [2025-03-18 14:23:35 +0000.811181][10ef] machine model :redmi
[013:535] [2025-03-18 14:23:35 +0000.811255][10ef] Support this machine
model :redmi
[013:535] [2025-03-18 14:23:35 +0000.811323][10ef] global inited! current sdk
version: 12-14-d8558ab
[013:582] [2025-03-18 14:23:35 +0000.857842][10ef]
Java_com_xiaomi_recordmediaprocess_MediaComposeFile_SetComposeFileFdJni:
SetComposeFileFdJni:
[013:582] [2025-03-18 14:23:35 +0000.858099][10ef] SetComposeFileFd:
MediaComposeFile::SetComposeFileFd: 247
[013:583] [2025-03-18 14:23:35 +0000.859157][10ef]
Java_com_xiaomi_recordmediaprocess_MediaComposeFile_BeginComposeJni:
[013:583] [2025-03-18 14:23:35 +0000.859268][10ef] BeginCompose: BeginCompose, is
composing 0
[013:584] [2025-03-18 14:23:35 +0000.859498][1e45] start recording, file path:
[013:584] [2025-03-18 14:23:35 +0000.859796][1e45] MP4 session params: fps:30
width:1280 height:720 file name: fileFd: 247 audio_timescale:44100
video_timescale:90000
[013:584] [2025-03-18 14:23:35 +0000.860018][1e45] MP4Recorder AddDisplayRotate:0
c:1 s:0 matrix[0]:256 matrix[1]:0 matrix[2]:0 matrix[3]:0 matrix[4]:256
matrix[8]:64
[013:584] [2025-03-18 14:23:35 +0000.860095][1e45] MP4 recorder params: fps:30
width:1280 height:720 audio time scale:44100 video time scale:90000 file name:
fileFD: 247
[013:584] [2025-03-18 14:23:35 +0000.860179][1e45] fd_open successed
handle:0xb4000077032990b0
[013:585] [2025-03-18 14:23:35 +0000.860648][1e45] create mp4 file:258
m_fileHandle: 0x7648f8fb00
[013:585] [2025-03-18 14:23:35 +0000.860804][1e45] MP4 file: is opened successfully
[013:585] [2025-03-18 14:23:35 +0000.860871][1e45] setupMediaProcessers:
[013:585] [2025-03-18 14:23:35 +0000.860923][1e45]
RecordingSessionInternalSimple:setup media processers.
[013:585] [2025-03-18 14:23:35 +0000.860978][1e45] construct AAC encoder
[013:586] [2025-03-18 14:23:35 +0000.861587][1e45] H264Encoder creating:
ultrafast012323
[013:586] [2025-03-18 14:23:35 +0000.861708][1e45] H264Encode::H264Encoder creating
with width:1280 height:720 m_fps:30 m_bitrate:14680064 useHWEncoder:0
[013:587] [2025-03-18 14:23:35 +0000.862657][1e45] H264Encode::GetMachineModel is
220333QBI
[013:587] [2025-03-18 14:23:35 +0000.862736][1e45] H264Encoder machine_mode
is:220333QBI
[013:587] [2025-03-18 14:23:35 +0000.862789][1e45] H264Encode::machine size :9
machine_mode:220333QBI
[013:587] [2025-03-18 14:23:35 +0000.862911][1e45] H264Encode::machine array
size :22 machine_mode:220333QBI
[013:587] [2025-03-18 14:23:35 +0000.862965][1e45] H264Encode::current machine
is :220333QBI auto check hw codec decide to use hw codec
[013:587] [2025-03-18 14:23:35 +0000.863018][1e45] setupCompressionSession:
[013:587] [2025-03-18 14:23:35 +0000.863069][1e45] H264Encode::creating hareware
Encoder
[013:587] [2025-03-18 14:23:35 +0000.863121][1e45] AndroidHwAvcEncoder
time:20154599 enter.
[013:588] [2025-03-18 14:23:35 +0000.863586][1e45] AndroidHwAvcEncoder:
g_jvm_encoder_ :0xb400007703221380 address:0x7628554760
[013:588] [2025-03-18 14:23:35 +0000.863789][1e45] AndroidMediaCodecVideoEncoder
construct jni_init_jfields: 1, 1
[013:588] [2025-03-18 14:23:35 +0000.863854][1e45] The video avc hw codec address
is 0x765878b1c8
[013:588] [2025-03-18 14:23:35 +0000.863985][1e45] AndroidHwAvcEncoder leave.
expire time = 1 ms
[013:588] [2025-03-18 14:23:35 +0000.864115][1e45] RegisterEncodeCompleteCallback
time:20154600 enter.
[013:588] [2025-03-18 14:23:35 +0000.864297][1e45] RegisterEncodeCompleteCallback
leave. expire time = 0 ms
[013:588] [2025-03-18 14:23:35 +0000.864382][1e45] InitEncode time:20154600 enter.
[013:589] [2025-03-18 14:23:35 +0000.864531][1e45] InitEncode:
MediaCodecVideoEncoder::Release _inited:1
[013:589] [2025-03-18 14:23:35 +0000.864600][1e45] Create time:20154601 enter.
[013:589] [2025-03-18 14:23:35 +0000.864725][1e45] H264Encoder encoderCreate
width:1280 height:720 fps:30 bitrate:14680064 usingVbrMode:1
[013:589] [2025-03-18 14:23:35 +0000.864787][1e45]
AndroidMediaCodecVideoEncoder::initEncoder, codec: 0, width: 1280, height: 720,
framerate: 30, bitrate: 14680064, usingVbr: 1, VideoEncoder: 0x764db34e40
[013:589] [2025-03-18 14:23:35 +0000.865091][1e45]
supported_type:image/[Link]
[013:589] [2025-03-18 14:23:35 +0000.865187][1e45] supported_type:video/avc
[013:589] [2025-03-18 14:23:35 +0000.865250][1e45] name:[Link]
mime:video/avc
[013:589] [2025-03-18 14:23:35 +0000.865334][1e45] hwCodecPrefix :[Link].
[013:589] [2025-03-18 14:23:35 +0000.865395][1e45] Found target codecer
[Link]
[013:590] [2025-03-18 14:23:35 +0000.865459][1e45] mediacodec_createCodecByName
time:20154602 enter.
[013:590] [2025-03-18 14:23:35 +0000.865516][1e45] WrapAndroidMediaCodec
time:20154602 enter.
[013:590] [2025-03-18 14:23:35 +0000.865771][1e45] WrapAndroidMediaCodec leave.
expire time = 0 ms
[013:595] [2025-03-18 14:23:35 +0000.871170][1e4a] Error([Link]): Set the
pthread name failed with error:34 name:Thread 0x0x7658438098
[013:638] [2025-03-18 14:23:35 +0000.913658][1e45] mediacodec_createCodecByName
leave. expire time = 48 ms
[013:638] [2025-03-18 14:23:35 +0000.913833][1e45] WrapAndroidMediaFromat
time:20154650 enter.
[013:638] [2025-03-18 14:23:35 +0000.913975][1e45] WrapAndroidMediaFromat leave.
expire time = 0 ms
[013:672] [2025-03-18 14:23:35 +0000.948137][1e45] Destroy time:20154684 enter.
[013:672] [2025-03-18 14:23:35 +0000.948274][1e45] WrapAndroidMediaFromat::
Destroy
[013:672] [2025-03-18 14:23:35 +0000.948333][1e45] Destroy leave. expire time = 0
ms
[013:673] [2025-03-18 14:23:35 +0000.948426][1e45] ~WrapAndroidMediaFromat
time:20154685 enter.
[013:673] [2025-03-18 14:23:35 +0000.948500][1e45] ~WrapAndroidMediaFromat leave.
expire time = 0 ms
[013:673] [2025-03-18 14:23:35 +0000.948575][1e45] Create leave. expire time = 84
ms
[013:673] [2025-03-18 14:23:35 +0000.948647][1e45] isSemiPlanarSupport
time:20154685 enter.
[013:673] [2025-03-18 14:23:35 +0000.948722][1e45] H264Encoder isSemiPlanarSupport
[013:673] [2025-03-18 14:23:35 +0000.948792][1e45] isSemiPlanarSupport leave.
expire time = 0 ms
[013:673] [2025-03-18 14:23:35 +0000.948862][1e45] creat hw H264Encoder success,
isSemiPlanar:1
[013:673] [2025-03-18 14:23:35 +0000.949050][1e45] InitEncode leave. expire time =
85 ms
[013:673] [2025-03-18 14:23:35 +0000.949126][1e45] H264Encode::created Encoder
[013:673] [2025-03-18 14:23:35 +0000.949194][1e45] H264Encode:: H264 encoder
created.
[013:673] [2025-03-18 14:23:35 +0000.949247][1e45] H264 encoder created.
[013:673] [2025-03-18 14:23:35 +0000.949331][1e45]
RecordingSessionInternalSimple:created avc encoder avc: 0x7658856580
[013:673] [2025-03-18 14:23:35 +0000.949388][1e45] setOutput:
[013:674] [2025-03-18 14:23:35 +0000.949439][1e45]
RecordingSessionInternalSimple:encoder set output to muxer!
[013:674] [2025-03-18 14:23:35 +0000.949538][1e45] request a key frame
[013:674] [2025-03-18 14:23:35 +0000.949589][1e45] H264Encode:: request a key frame
[013:679] [2025-03-18 14:23:35 +0000.954435][1e4a] add aac audio track with id:1
[013:682] [2025-03-18 14:23:35 +0000.957696][1e4a] audio start ts:0
[013:682] [2025-03-18 14:23:35 +0000.957904][1e4a] the audio frame has been written
into MP4 file
[013:695] [2025-03-18 14:23:35 +0000.970513][1e45] setDisplayRotate :90
[013:695] [2025-03-18 14:23:35 +0000.970692][1e45] MP4Recorder AddDisplayRotate:90
c:6.12323e-17 s:-1 matrix[0]:0 matrix[1]:256 matrix[2]:0 matrix[3]:65535
matrix[4]:0 matrix[8]:64
[013:697] [2025-03-18 14:23:35 +0000.972507][1e46] MediaComposeFile
WriteVideoFrametoMP4_w -> pushExtraYUVFrame
[013:699] [2025-03-18 14:23:35 +0000.975329][1e46]
AndroidMediaCodecVideoEncoder::encodeFrameInput force a key frame
[013:740] [2025-03-18 14:23:36 +0000.15550][1e48] webrtc common_video plane
old ..... (1/1000) new: 1001 delete: 972 diff: 29
[013:748] [2025-03-18 14:23:36 +0000.23640][1e46] DTS queue for
Generator:0x76584740b8 10 29 67 91
[013:803] [2025-03-18 14:23:36 +0000.78518][1e46] h264 add frame header cdr flag
[013:804] [2025-03-18 14:23:36 +0000.79819][1e46] h264 add frame header cdr flag
[013:804] [2025-03-18 14:23:36 +0000.80280][1e46] Received key frame:10
[013:805] [2025-03-18 14:23:36 +0000.80419][1e46] H264Encode:: get a sps pps
header!headerSize:31
[013:805] [2025-03-18 14:23:36 +0000.80620][1e4a] get the H.264 SPS parameter
[013:806] [2025-03-18 14:23:36 +0000.82208][1e4a] add video track with id:2
[013:809] [2025-03-18 14:23:36 +0000.85397][1e4a] get the H.264 PPS parameter
[013:811] [2025-03-18 14:23:36 +0000.86754][1e4a] get the H.264 IDR frame
[013:811] [2025-03-18 14:23:36 +0000.86977][1e4a] resss:true
[013:811] [2025-03-18 14:23:36 +0000.87040][1e4a] video start ts:10
[013:811] [2025-03-18 14:23:36 +0000.87171][1e4a] the video frame has been written
into MP4 file
[013:812] [2025-03-18 14:23:36 +0000.87685][1e48] Error(video_source.cc:430): wait
decoder a frame: 28
[013:830] [2025-03-18 14:23:36 +0000.106199][1e36] av_read_frame AVERROR_EOF
[013:885] [2025-03-18 14:23:36 +0000.160855][1e49] audio_frame_list_ empty
[013:926] [2025-03-18 14:23:36 +0000.201611][1e46] Push an pts:578 to dts queue.
[013:938] [2025-03-18 14:23:36 +0000.214030][1e36] OnReceiveEOF:
[013:939] [2025-03-18 14:23:36 +0000.214476][1e36] OnDecoderEOF time:20154951
enter.
[013:939] [2025-03-18 14:23:36 +0000.214731][1e36] OnDecoderEOF leave. expire time
= 0 ms
[013:939] [2025-03-18 14:23:36 +0000.214803][1e36] OnDecoderFinished:
OnDecoderFinished total decoder frames:23 this:0x7664726480
[013:939] [2025-03-18 14:23:36 +0000.214882][1e36] NULLFilter::OnVideoSourceEOF
0x7664726480 this 0x764db34540
[013:939] [2025-03-18 14:23:36 +0000.214883][1e32] CleanUp time:20154951 enter.
[013:939] [2025-03-18 14:23:36 +0000.215013][1e36] NULLFilter::OnVideoSourceEOF
0x764db34540 this 0x764db34600
[013:939] [2025-03-18 14:23:36 +0000.215080][1e36] NULLFilter::OnVideoSourceEOF
0x764db34600 this 0x764db34840
[013:940] [2025-03-18 14:23:36 +0000.215775][1e49] PullAudioFrame: PullFrame audio
finished.
[013:940] [2025-03-18 14:23:36 +0000.216012][1e49]
Warning(media_filter_composefile.cc:268): pull audio frame failed:8
[013:940] [2025-03-18 14:23:36 +0000.216108][1e49] OnAudioTimer: OnAudioTimer
return
[013:940] [2025-03-18 14:23:36 +0000.216214][1e48]
Warning(media_filter_composefile.cc:321): pull video frame failed:8
[013:940] [2025-03-18 14:23:36 +0000.216316][1e48] OnVideoTimer: OnVideoTimer
EndComposeFile
[013:940] [2025-03-18 14:23:36 +0000.216372][1e48] EndComposeFile: EndComposeFile,
is composing 1
[013:950] [2025-03-18 14:23:36 +0000.226120][1e32] CleanUp leave. expire time = 11
ms
[013:951] [2025-03-18 14:23:36 +0000.226462][1e32] clean up
[013:951] [2025-03-18 14:23:36 +0000.226525][1e32] running_decoder_count:0max
count:2
[013:955] [2025-03-18 14:23:36 +0000.230827][1e46]
MediaComposeFile::WriteVideoFrametoMP4_w quitwrite mp4 sum frames:23
[013:955] [2025-03-18 14:23:36 +0000.230988][1e46]
MediaComposeFile::WriteVideoFrametoMP4_w quit this:0x7658860800
[013:957] [2025-03-18 14:23:36 +0000.232560][1e47]
MediaComposeFile::WriteAudioFrametoMP4_w quit
[013:957] [2025-03-18 14:23:36 +0000.232808][1e47]
MediaComposeFile::WriteAudioFrametoMP4_w real quit
[013:957] [2025-03-18 14:23:36 +0000.233267][1e45] stop recording
[013:957] [2025-03-18 14:23:36 +0000.233377][1e45]
RecordingSessionInternalSimple:destroy media processers
[013:958] [2025-03-18 14:23:36 +0000.233437][1e45] H264Encode::H264Encoder flush
frames, m_useHWEncoder:1
[013:958] [2025-03-18 14:23:36 +0000.233496][1e45] H264Encode::flushing hareware
Encoder
[013:958] [2025-03-18 14:23:36 +0000.233877][1e45] Flush time:20154970 enter.
[013:958] [2025-03-18 14:23:36 +0000.234055][1e45] H264Encoder encoder flush
[013:958] [2025-03-18 14:23:36 +0000.234131][1e45] flush output queue
[013:981] [2025-03-18 14:23:36 +0000.256522][1e45] last dts:543 currentPts:578
ppsOrSPS:0 queue length:6
[014:062] [2025-03-18 14:23:36 +0000.337634][1daf] haveEnoughProcessedData
[Link]: 0
[014:286] [2025-03-18 14:23:36 +0000.561580][1e45] Flush leave. expire time = 328
ms
[014:286] [2025-03-18 14:23:36 +0000.561810][1e45] ~H264EncodeWrap:
[014:286] [2025-03-18 14:23:36 +0000.561875][1e45] ~H264Encode:
[014:286] [2025-03-18 14:23:36 +0000.561929][1e45] teardownCompressionSession:
H264Encode::destroying Encoder
[014:286] [2025-03-18 14:23:36 +0000.561985][1e45] Release time:20155298 enter.
[014:286] [2025-03-18 14:23:36 +0000.562197][1e45] Release:
MediaCodecVideoEncoder::Release _inited:1
[014:286] [2025-03-18 14:23:36 +0000.562269][1e45] Destroy time:20155298 enter.
[014:286] [2025-03-18 14:23:36 +0000.562324][1e45] H264Encoder encoderDestroy
[014:286] [2025-03-18 14:23:36 +0000.562380][1e45]
AndroidMediaCodecVideoEncoder::release env: 0x76588561c0
[014:287] [2025-03-18 14:23:36 +0000.562435][1e45]
AndroidMediaCodecVideoEncoder::Destroy
[014:310] [2025-03-18 14:23:36 +0000.586377][1daf] Run AGC when audioType = 0
[014:311] [2025-03-18 14:23:36 +0000.587040][1e45] Destroy leave. expire time = 25
ms
[014:311] [2025-03-18 14:23:36 +0000.587347][1e45] Release leave. expire time = 25
ms
[014:312] [2025-03-18 14:23:36 +0000.587472][1e45] ~AndroidHwAvcEncoder
time:20155324 enter.
[014:312] [2025-03-18 14:23:36 +0000.587710][1e45] Release time:20155324 enter.
[014:312] [2025-03-18 14:23:36 +0000.587782][1e45] Release:
MediaCodecVideoEncoder:: has been released before, just return
[014:312] [2025-03-18 14:23:36 +0000.587838][1e45] Release leave. expire time = 0
ms
[014:312] [2025-03-18 14:23:36 +0000.587892][1e45] ~AndroidMediaCodecVideoEncoder
[014:312] [2025-03-18 14:23:36 +0000.587944][1e45] ~WrapAndroidMediaCodec
time:20155324 enter.
[014:312] [2025-03-18 14:23:36 +0000.588040][1e45] ~WrapAndroidMediaCodec leave.
expire time = 0 ms
[014:312] [2025-03-18 14:23:36 +0000.588099][1e45] video hevc hw codec
destructor:0x765878b1c8
[014:312] [2025-03-18 14:23:36 +0000.588203][1e45] ~AndroidHwAvcEncoder leave.
expire time = 0 ms
[014:312] [2025-03-18 14:23:36 +0000.588284][1e45] teardownCompressionSession:
H264Encode::destroyed Encoder
[014:312] [2025-03-18 14:23:36 +0000.588353][1e45]
RecordingSessionInternalSimple:destroy aac encoder output!
[014:313] [2025-03-18 14:23:36 +0000.588409][1e45] AACSWEncode destructor
[014:318] [2025-03-18 14:23:36 +0000.594202][1e4a] fd_close successed!
[014:320] [2025-03-18 14:23:36 +0000.595888][1e4a] MP4 close file successfully
[014:320] [2025-03-18 14:23:36 +0000.596108][1e4a] Recording session Internal:
notify recording ok
[014:320] [2025-03-18 14:23:36 +0000.596313][1e4a] onRecordingOk: Recording Ok,
compose use time: 737, averagefps 0
[014:320] [2025-03-18 14:23:36 +0000.596371][1e4a] OnReceiveEOF:
[014:323] [2025-03-18 14:23:36 +0000.599349][1e48] OnVideoTimer: OnVideoTimer
return
[014:335] [2025-03-18 14:23:36 +0000.611147][10ef]
Java_com_xiaomi_recordmediaprocess_MediaComposeFile_DestructMediaComposeFileJni:
[014:336] [2025-03-18 14:23:36 +0000.611667][10ef] ~MediaComposeFile time:20155348
enter.
[014:336] [2025-03-18 14:23:36 +0000.611752][10ef] CancelCompose: CancelCompose,
is composing 0
[014:336] [2025-03-18 14:23:36 +0000.611961][1e45] stop recording
[014:336] [2025-03-18 14:23:36 +0000.612043][1e45] we have stopped recording before
[014:337] [2025-03-18 14:23:36 +0000.612800][10ef] ~MediaComposeFile leave. expire
time = 1 ms
[014:337] [2025-03-18 14:23:36 +0000.613010][10ef] ~RecordingSessionInternalSimple:
RecordingSessionInternalSimple::~RecordingSessionInternalSimple
[014:338] [2025-03-18 14:23:36 +0000.613539][10ef] global uninited!
[014:338] [2025-03-18 14:23:36 +0000.613678][10ef]
Java_com_xiaomi_recordmediaprocess_MediaEffectGraph_DestructMediaEffectGraphJni:
[014:338] [2025-03-18 14:23:36 +0000.613810][10ef] ~MediaFilterGraph:
MediaFilterGraph destruct
[014:338] [2025-03-18 14:23:36 +0000.613884][10ef] RemoveVideoBackGroud: hava not
add video backgroud
[014:338] [2025-03-18 14:23:36 +0000.613991][10ef] UnbindInputFilter 0x764db348d8
this 0x76edc6d4a0
[014:338] [2025-03-18 14:23:36 +0000.614092][10ef] ClearAllSource: remove source
filter, sourceid: 0x7664726480
[014:338] [2025-03-18 14:23:36 +0000.614161][10ef] DestoryDecoderByVideoSource
time:20155350 enter.
[014:338] [2025-03-18 14:23:36 +0000.614239][10ef] ~VideoBindDecoder time:20155350
enter.
[014:339] [2025-03-18 14:23:36 +0000.614534][10ef] CleanUp time:20155351 enter.
[014:339] [2025-03-18 14:23:36 +0000.615044][10ef] CleanUp leave. expire time = 0
ms
[014:339] [2025-03-18 14:23:36 +0000.615135][10ef] CleanUp time:20155351 enter.
[014:340] [2025-03-18 14:23:36 +0000.615581][10ef] CleanUp leave. expire time = 1
ms
[014:341] [2025-03-18 14:23:36 +0000.616415][10ef] ~VideoBindDecoder leave. expire
time = 3 ms
[014:342] [2025-03-18 14:23:36 +0000.617723][10ef] DestoryDecoderByVideoSource
leave. expire time = 4 ms
[014:342] [2025-03-18 14:23:36 +0000.617926][10ef] UnbindInputFilter 0x764db34698
this 0x764db348d8
[014:342] [2025-03-18 14:23:36 +0000.618022][10ef] UnbindInputFilter 0x764db345d8
this 0x764db34698
[014:342] [2025-03-18 14:23:36 +0000.618144][10ef] UnbindInputFilter 0x76647266a0
this 0x764db345d8
[014:342] [2025-03-18 14:23:36 +0000.618229][10ef] UnbindInputFilter 0x764db34818
this 0x764db34998
[014:342] [2025-03-18 14:23:36 +0000.618308][10ef] UnbindInputFilter 0x764db34758
this 0x764db34818
[014:342] [2025-03-18 14:23:36 +0000.618388][10ef] UnbindInputFilter 0x76647266a0
this 0x764db34758
[014:343] [2025-03-18 14:23:36 +0000.618477][10ef] ~GLESContext:
[014:344] [2025-03-18 14:23:36 +0000.619565][10ef] GLESContext destruct finish.
[014:344] [2025-03-18 14:23:36 +0000.619666][10ef] filter: filter pipeline destroy
this: 0x76edc6d400
[015:773] [2025-03-18 14:23:38 +0000.48849][1daf] haveEnoughProcessedData
[Link]: 0
[016:315] [2025-03-18 14:23:38 +0000.590567][1daf] Run AGC when audioType = 0
[016:315] [2025-03-18 14:23:38 +0000.590800][1daf]
AudioDeviceDataHandler::MixAndSendOutFrame
[017:493] [2025-03-18 14:23:39 +0000.768882][1daf] haveEnoughProcessedData
[Link]: 10
[018:037] [2025-03-18 14:23:40 +0000.313380][1117]
Java_com_xiaomi_recordmediaprocess_MediaEffectCamera_DestructMediaEffectCameraJni:
[018:038] [2025-03-18 14:23:40 +0000.313631][1117] ~MediaFilterCamera time:20159050
enter.
[018:038] [2025-03-18 14:23:40 +0000.313714][1117] StopPullFrameAndWriteMp4
time:20159050 enter.
[018:038] [2025-03-18 14:23:40 +0000.314251][1daa] stop recording
[018:038] [2025-03-18 14:23:40 +0000.314344][1daa] we have stopped recording before
[018:039] [2025-03-18 14:23:40 +0000.314484][1117] StopPullFrameAndWriteMp4 leave.
expire time = 1 ms
[018:039] [2025-03-18 14:23:40 +0000.315101][1117] DestroyPipelineAndFilters
time:20159051 enter.
[018:039] [2025-03-18 14:23:40 +0000.315191][1117] DestroyPipelineAndFilters
leave. expire time = 0 ms
[018:039] [2025-03-18 14:23:40 +0000.315267][1117] AppDeviceManagerStopMic
[018:039] [2025-03-18 14:23:40 +0000.315367][1117] AppDeviceManagerStopMic::mic
status is on
[018:040] [2025-03-18 14:23:40 +0000.315473][1117] Try to stop webrtc device.
[018:040] [2025-03-18 14:23:40 +0000.315551][1117] Set record state to
[Link]
[018:090] [2025-03-18 14:23:40 +0000.366397][1117] Try to destory the
[Link]
[018:291] [2025-03-18 14:23:40 +0000.566733][1117] DestroyAudioRecorder:
[018:291] [2025-03-18 14:23:40 +0000.567018][1117] Cleanup the buffer queue in the
recorder.
[018:291] [2025-03-18 14:23:40 +0000.567082][1117] Destroy the recorder.
[018:293] [2025-03-18 14:23:40 +0000.568717][1117] StopRecording finished.
[018:293] [2025-03-18 14:23:40 +0000.568844][1117] The stop recording success.
[018:293] [2025-03-18 14:23:40 +0000.568932][1117]
AudioDeviceDataHandler::StopMicProcess
[018:296] [2025-03-18 14:23:40 +0000.572349][1117] AppDeviceManager stop.
[018:297] [2025-03-18 14:23:40 +0000.572566][1117] Rlease the webrtc device object.
[018:297] [2025-03-18 14:23:40 +0000.573054][1117] OpenSlesInput destruct.
[018:297] [2025-03-18 14:23:40 +0000.573171][1117] OpenSlesOutput destruct.
[018:304] [2025-03-18 14:23:40 +0000.580225][1117] EventDispatchServerScope
destruct
[018:305] [2025-03-18 14:23:40 +0000.580441][1117]
Warning([Link]): PhysicalSocketServer destruct
[018:305] [2025-03-18 14:23:40 +0000.580590][1117] ~AudioDeviceDataHandler
[018:306] [2025-03-18 14:23:40 +0000.581691][1117] AppDeviceManagerDestruct.
[018:306] [2025-03-18 14:23:40 +0000.581820][1117] ~AppDeviceManager:
[018:306] [2025-03-18 14:23:40 +0000.581985][1117] ~CpuOverloadDetect time:20159318
enter.
[018:307] [2025-03-18 14:23:40 +0000.582616][1117] ~CpuOverloadDetect leave.
expire time = 1 ms
[018:353] [2025-03-18 14:23:40 +0000.628485][1117] Destruct BeautifyReader begin...
[018:353] [2025-03-18 14:23:40 +0000.628717][1117] Destruct BeautifyReader done.
[018:353] [2025-03-18 14:23:40 +0000.628814][1117] ~MediaFilterCamera leave.
expire time = 315 ms
[018:353] [2025-03-18 14:23:40 +0000.629299][1117] ~GLESContext:
[018:357] [2025-03-18 14:23:40 +0000.633340][1117] GLESContext destruct finish.
[018:359] [2025-03-18 14:23:40 +0000.634443][1117] ~RecordingSessionInternalSimple:
RecordingSessionInternalSimple::~RecordingSessionInternalSimple
[018:362] [2025-03-18 14:23:40 +0000.638328][1117] global uninited!
[018:367] [2025-03-18 14:23:40 +0000.643355][1117] clear AppID 50011
[018:368] [2025-03-18 14:23:40 +0000.643779][1117] UnRegister JVM for Xplatform
util
[018:368] [2025-03-18 14:23:40 +0000.643879][1117] Dispose::unregister webrtc video
engine
[018:368] [2025-03-18 14:23:40 +0000.644105][1117] Init the android object with
jvm:0x0 env:0x0 context:0x0
[018:368] [2025-03-18 14:23:40 +0000.644201][1117] SetAndroidMediaCodecObjects
time:20159380 enter.
[018:368] [2025-03-18 14:23:40 +0000.644391][